<?xml version='1.0' encoding='UTF-8'?>
<gpx version="1.1" creator="https://www.komoot.de" xmlns="http://www.topografix.com/GPX/1/1" xmlns:xsi="http://www.w3.org/2001/XMLSchema-instance" xsi:schemaLocation="http://www.topografix.com/GPX/1/1 http://www.topografix.com/GPX/1/1/gpx.xsd">
  <metadata>
    <name>33178 - Rad-Treff Borchen - RTF "Durch das Hochstift PB" - 18.06.22 - 70 km</name>
    <author>
      <link href="https://www.komoot.de">
        <text>komoot</text>
        <type>text/html</type>
      </link>
    </author>
  </metadata>
  <trk>
    <name>33178 - Rad-Treff Borchen - RTF "Durch das Hochstift PB" - 18.06.22 - 70 km</name>
    <trkseg>
      <trkpt lat="51.658839" lon="8.720327">
        <ele>135.203234</ele>
        <time>2022-04-06T18:22:14.980Z</time>
      </trkpt>
      <trkpt lat="51.658839" lon="8.720327">
        <ele>135.203234</ele>
        <time>2022-04-06T18:22:14.998Z</time>
      </trkpt>
      <trkpt lat="51.658911" lon="8.720945">
        <ele>135.203234</ele>
        <time>2022-04-06T18:22:57.627Z</time>
      </trkpt>
      <trkpt lat="51.658934" lon="8.721142">
        <ele>135.203234</ele>
        <time>2022-04-06T18:23:11.126Z</time>
      </trkpt>
      <trkpt lat="51.659098" lon="8.720961">
        <ele>135.203234</ele>
        <time>2022-04-06T18:23:13.916Z</time>
      </trkpt>
      <trkpt lat="51.659155" lon="8.720899">
        <ele>135.203234</ele>
        <time>2022-04-06T18:23:14.757Z</time>
      </trkpt>
      <trkpt lat="51.659359" lon="8.720648">
        <ele>135.228619</ele>
        <time>2022-04-06T18:23:18.232Z</time>
      </trkpt>
      <trkpt lat="51.659643" lon="8.720298">
        <ele>135.293784</ele>
        <time>2022-04-06T18:23:23.020Z</time>
      </trkpt>
      <trkpt lat="51.659772" lon="8.720140">
        <ele>135.323317</ele>
        <time>2022-04-06T18:23:25.297Z</time>
      </trkpt>
      <trkpt lat="51.660373" lon="8.719338">
        <ele>135.465539</ele>
        <time>2022-04-06T18:23:39.457Z</time>
      </trkpt>
      <trkpt lat="51.660670" lon="8.718705">
        <ele>135.527987</ele>
        <time>2022-04-06T18:23:47.209Z</time>
      </trkpt>
      <trkpt lat="51.660894" lon="8.717829">
        <ele>135.514157</ele>
        <time>2022-04-06T18:23:55.321Z</time>
      </trkpt>
      <trkpt lat="51.660925" lon="8.717712">
        <ele>135.512300</ele>
        <time>2022-04-06T18:23:56.382Z</time>
      </trkpt>
      <trkpt lat="51.661015" lon="8.717707">
        <ele>135.510181</ele>
        <time>2022-04-06T18:23:57.602Z</time>
      </trkpt>
      <trkpt lat="51.661070" lon="8.717619">
        <ele>135.508358</ele>
        <time>2022-04-06T18:23:58.791Z</time>
      </trkpt>
      <trkpt lat="51.661161" lon="8.717681">
        <ele>135.506034</ele>
        <time>2022-04-06T18:24:00.627Z</time>
      </trkpt>
      <trkpt lat="51.661825" lon="8.718132">
        <ele>135.489080</ele>
        <time>2022-04-06T18:24:15.507Z</time>
      </trkpt>
      <trkpt lat="51.662245" lon="8.718456">
        <ele>135.521842</ele>
        <time>2022-04-06T18:24:25.268Z</time>
      </trkpt>
      <trkpt lat="51.662601" lon="8.718823">
        <ele>135.552667</ele>
        <time>2022-04-06T18:24:33.166Z</time>
      </trkpt>
      <trkpt lat="51.662794" lon="8.719054">
        <ele>135.570202</ele>
        <time>2022-04-06T18:24:37.705Z</time>
      </trkpt>
      <trkpt lat="51.663047" lon="8.719306">
        <ele>135.591896</ele>
        <time>2022-04-06T18:24:43.790Z</time>
      </trkpt>
      <trkpt lat="51.663193" lon="8.719399">
        <ele>135.603347</ele>
        <time>2022-04-06T18:24:47.350Z</time>
      </trkpt>
      <trkpt lat="51.663236" lon="8.719259">
        <ele>135.610416</ele>
        <time>2022-04-06T18:24:48.985Z</time>
      </trkpt>
      <trkpt lat="51.663333" lon="8.719153">
        <ele>135.618964</ele>
        <time>2022-04-06T18:24:50.937Z</time>
      </trkpt>
      <trkpt lat="51.664657" lon="8.718648">
        <ele>136.500544</ele>
        <time>2022-04-06T18:25:15.359Z</time>
      </trkpt>
      <trkpt lat="51.665085" lon="8.718308">
        <ele>136.798938</ele>
        <time>2022-04-06T18:25:23.130Z</time>
      </trkpt>
      <trkpt lat="51.665470" lon="8.717931">
        <ele>136.847134</ele>
        <time>2022-04-06T18:25:30.753Z</time>
      </trkpt>
      <trkpt lat="51.665642" lon="8.717932">
        <ele>136.865537</ele>
        <time>2022-04-06T18:25:33.989Z</time>
      </trkpt>
      <trkpt lat="51.666061" lon="8.718233">
        <ele>136.914617</ele>
        <time>2022-04-06T18:25:41.560Z</time>
      </trkpt>
      <trkpt lat="51.666739" lon="8.718936">
        <ele>136.806360</ele>
        <time>2022-04-06T18:25:52.811Z</time>
      </trkpt>
      <trkpt lat="51.666942" lon="8.719067">
        <ele>136.455253</ele>
        <time>2022-04-06T18:25:55.505Z</time>
      </trkpt>
      <trkpt lat="51.667039" lon="8.719131">
        <ele>136.286957</ele>
        <time>2022-04-06T18:25:56.662Z</time>
      </trkpt>
      <trkpt lat="51.667305" lon="8.719341">
        <ele>135.811372</ele>
        <time>2022-04-06T18:25:59.959Z</time>
      </trkpt>
      <trkpt lat="51.667633" lon="8.719623">
        <ele>135.214484</ele>
        <time>2022-04-06T18:26:04.013Z</time>
      </trkpt>
      <trkpt lat="51.667828" lon="8.719630">
        <ele>134.901286</ele>
        <time>2022-04-06T18:26:06.188Z</time>
      </trkpt>
      <trkpt lat="51.668276" lon="8.719444">
        <ele>134.158443</ele>
        <time>2022-04-06T18:26:11.345Z</time>
      </trkpt>
      <trkpt lat="51.668351" lon="8.719385">
        <ele>134.018465</ele>
        <time>2022-04-06T18:26:12.249Z</time>
      </trkpt>
      <trkpt lat="51.668611" lon="8.719452">
        <ele>133.562465</ele>
        <time>2022-04-06T18:26:15.106Z</time>
      </trkpt>
      <trkpt lat="51.668808" lon="8.719556">
        <ele>133.203464</ele>
        <time>2022-04-06T18:26:17.365Z</time>
      </trkpt>
      <trkpt lat="51.669174" lon="8.719747">
        <ele>132.537227</ele>
        <time>2022-04-06T18:26:21.594Z</time>
      </trkpt>
      <trkpt lat="51.669509" lon="8.719922">
        <ele>131.927361</ele>
        <time>2022-04-06T18:26:25.516Z</time>
      </trkpt>
      <trkpt lat="51.669739" lon="8.720040">
        <ele>131.509354</ele>
        <time>2022-04-06T18:26:28.250Z</time>
      </trkpt>
      <trkpt lat="51.669885" lon="8.720119">
        <ele>131.242643</ele>
        <time>2022-04-06T18:26:30.124Z</time>
      </trkpt>
      <trkpt lat="51.670247" lon="8.720313">
        <ele>130.747323</ele>
        <time>2022-04-06T18:26:34.789Z</time>
      </trkpt>
      <trkpt lat="51.670284" lon="8.720224">
        <ele>130.679390</ele>
        <time>2022-04-06T18:26:35.583Z</time>
      </trkpt>
      <trkpt lat="51.670389" lon="8.719921">
        <ele>130.459327</ele>
        <time>2022-04-06T18:26:38.263Z</time>
      </trkpt>
      <trkpt lat="51.670500" lon="8.719575">
        <ele>130.212346</ele>
        <time>2022-04-06T18:26:41.154Z</time>
      </trkpt>
      <trkpt lat="51.670583" lon="8.719315">
        <ele>130.026946</ele>
        <time>2022-04-06T18:26:43.359Z</time>
      </trkpt>
      <trkpt lat="51.670659" lon="8.719076">
        <ele>129.856659</ele>
        <time>2022-04-06T18:26:45.246Z</time>
      </trkpt>
      <trkpt lat="51.670937" lon="8.718706">
        <ele>129.488148</ele>
        <time>2022-04-06T18:26:49.389Z</time>
      </trkpt>
      <trkpt lat="51.671442" lon="8.718423">
        <ele>129.407684</ele>
        <time>2022-04-06T18:26:56.116Z</time>
      </trkpt>
      <trkpt lat="51.671497" lon="8.718397">
        <ele>129.482194</ele>
        <time>2022-04-06T18:26:56.991Z</time>
      </trkpt>
      <trkpt lat="51.671696" lon="8.718221">
        <ele>129.777255</ele>
        <time>2022-04-06T18:27:00.995Z</time>
      </trkpt>
      <trkpt lat="51.671754" lon="8.718000">
        <ele>129.970727</ele>
        <time>2022-04-06T18:27:03.708Z</time>
      </trkpt>
      <trkpt lat="51.671762" lon="8.717007">
        <ele>130.771372</ele>
        <time>2022-04-06T18:27:20.768Z</time>
      </trkpt>
      <trkpt lat="51.671843" lon="8.716580">
        <ele>131.131373</ele>
        <time>2022-04-06T18:27:29.163Z</time>
      </trkpt>
      <trkpt lat="51.671942" lon="8.716240">
        <ele>131.434197</ele>
        <time>2022-04-06T18:27:34.938Z</time>
      </trkpt>
      <trkpt lat="51.671972" lon="8.716088">
        <ele>131.618413</ele>
        <time>2022-04-06T18:27:37.313Z</time>
      </trkpt>
      <trkpt lat="51.671993" lon="8.715987">
        <ele>131.765707</ele>
        <time>2022-04-06T18:27:38.868Z</time>
      </trkpt>
      <trkpt lat="51.672121" lon="8.715513">
        <ele>132.480550</ele>
        <time>2022-04-06T18:27:46.376Z</time>
      </trkpt>
      <trkpt lat="51.672227" lon="8.715119">
        <ele>133.074391</ele>
        <time>2022-04-06T18:27:53.032Z</time>
      </trkpt>
      <trkpt lat="51.672634" lon="8.714299">
        <ele>134.526627</ele>
        <time>2022-04-06T18:28:10.471Z</time>
      </trkpt>
      <trkpt lat="51.672832" lon="8.713886">
        <ele>135.248420</ele>
        <time>2022-04-06T18:28:18.211Z</time>
      </trkpt>
      <trkpt lat="51.672969" lon="8.713505">
        <ele>135.502823</ele>
        <time>2022-04-06T18:28:23.425Z</time>
      </trkpt>
      <trkpt lat="51.673455" lon="8.712159">
        <ele>135.547737</ele>
        <time>2022-04-06T18:28:37.072Z</time>
      </trkpt>
      <trkpt lat="51.673873" lon="8.710970">
        <ele>135.535273</ele>
        <time>2022-04-06T18:28:48.232Z</time>
      </trkpt>
      <trkpt lat="51.674472" lon="8.709587">
        <ele>135.277729</ele>
        <time>2022-04-06T18:29:02.195Z</time>
      </trkpt>
      <trkpt lat="51.674520" lon="8.709477">
        <ele>135.257195</ele>
        <time>2022-04-06T18:29:03.254Z</time>
      </trkpt>
      <trkpt lat="51.674686" lon="8.708800">
        <ele>135.146051</ele>
        <time>2022-04-06T18:29:09.967Z</time>
      </trkpt>
      <trkpt lat="51.674766" lon="8.708402">
        <ele>135.209003</ele>
        <time>2022-04-06T18:29:14.361Z</time>
      </trkpt>
      <trkpt lat="51.675016" lon="8.706839">
        <ele>135.542178</ele>
        <time>2022-04-06T18:29:31.445Z</time>
      </trkpt>
      <trkpt lat="51.675318" lon="8.704951">
        <ele>135.816220</ele>
        <time>2022-04-06T18:29:49.844Z</time>
      </trkpt>
      <trkpt lat="51.675625" lon="8.703086">
        <ele>135.932001</ele>
        <time>2022-04-06T18:30:08.632Z</time>
      </trkpt>
      <trkpt lat="51.675834" lon="8.702115">
        <ele>135.143621</ele>
        <time>2022-04-06T18:30:18.300Z</time>
      </trkpt>
      <trkpt lat="51.676088" lon="8.701394">
        <ele>134.507578</ele>
        <time>2022-04-06T18:30:24.213Z</time>
      </trkpt>
      <trkpt lat="51.676332" lon="8.700862">
        <ele>134.000034</ele>
        <time>2022-04-06T18:30:28.695Z</time>
      </trkpt>
      <trkpt lat="51.676397" lon="8.700762">
        <ele>133.888915</ele>
        <time>2022-04-06T18:30:29.673Z</time>
      </trkpt>
      <trkpt lat="51.676941" lon="8.700074">
        <ele>131.858092</ele>
        <time>2022-04-06T18:30:36.773Z</time>
      </trkpt>
      <trkpt lat="51.677241" lon="8.699819">
        <ele>130.742599</ele>
        <time>2022-04-06T18:30:40.152Z</time>
      </trkpt>
      <trkpt lat="51.677837" lon="8.699522">
        <ele>128.690674</ele>
        <time>2022-04-06T18:30:46.263Z</time>
      </trkpt>
      <trkpt lat="51.677848" lon="8.699519">
        <ele>128.653977</ele>
        <time>2022-04-06T18:30:46.351Z</time>
      </trkpt>
      <trkpt lat="51.678341" lon="8.699367">
        <ele>127.594951</ele>
        <time>2022-04-06T18:30:51.322Z</time>
      </trkpt>
      <trkpt lat="51.679151" lon="8.699117">
        <ele>126.833602</ele>
        <time>2022-04-06T18:31:01.217Z</time>
      </trkpt>
      <trkpt lat="51.679907" lon="8.698849">
        <ele>126.248700</ele>
        <time>2022-04-06T18:31:14.415Z</time>
      </trkpt>
      <trkpt lat="51.679968" lon="8.698673">
        <ele>126.455634</ele>
        <time>2022-04-06T18:31:17.056Z</time>
      </trkpt>
      <trkpt lat="51.679989" lon="8.698281">
        <ele>126.859445</ele>
        <time>2022-04-06T18:31:21.478Z</time>
      </trkpt>
      <trkpt lat="51.680087" lon="8.696414">
        <ele>128.782410</ele>
        <time>2022-04-06T18:31:47.850Z</time>
      </trkpt>
      <trkpt lat="51.680433" lon="8.696491">
        <ele>129.398449</ele>
        <time>2022-04-06T18:31:56.016Z</time>
      </trkpt>
      <trkpt lat="51.680547" lon="8.696510">
        <ele>129.621142</ele>
        <time>2022-04-06T18:31:58.546Z</time>
      </trkpt>
      <trkpt lat="51.681156" lon="8.696557">
        <ele>130.805844</ele>
        <time>2022-04-06T18:32:12.588Z</time>
      </trkpt>
      <trkpt lat="51.681470" lon="8.696502">
        <ele>131.419565</ele>
        <time>2022-04-06T18:32:19.629Z</time>
      </trkpt>
      <trkpt lat="51.681889" lon="8.696369">
        <ele>132.249342</ele>
        <time>2022-04-06T18:32:29.325Z</time>
      </trkpt>
      <trkpt lat="51.682377" lon="8.696004">
        <ele>132.856773</ele>
        <time>2022-04-06T18:32:41.715Z</time>
      </trkpt>
      <trkpt lat="51.682470" lon="8.695866">
        <ele>132.938719</ele>
        <time>2022-04-06T18:32:44.200Z</time>
      </trkpt>
      <trkpt lat="51.682578" lon="8.695923">
        <ele>133.012407</ele>
        <time>2022-04-06T18:32:46.226Z</time>
      </trkpt>
      <trkpt lat="51.682650" lon="8.695782">
        <ele>133.085847</ele>
        <time>2022-04-06T18:32:48.194Z</time>
      </trkpt>
      <trkpt lat="51.682611" lon="8.695637">
        <ele>133.149394</ele>
        <time>2022-04-06T18:32:49.816Z</time>
      </trkpt>
      <trkpt lat="51.682513" lon="8.695616">
        <ele>133.213501</ele>
        <time>2022-04-06T18:32:51.293Z</time>
      </trkpt>
      <trkpt lat="51.682209" lon="8.695112">
        <ele>133.496204</ele>
        <time>2022-04-06T18:32:58.020Z</time>
      </trkpt>
      <trkpt lat="51.681619" lon="8.694544">
        <ele>134.152489</ele>
        <time>2022-04-06T18:33:07.645Z</time>
      </trkpt>
      <trkpt lat="51.680825" lon="8.694020">
        <ele>135.558625</ele>
        <time>2022-04-06T18:33:21.968Z</time>
      </trkpt>
      <trkpt lat="51.680254" lon="8.693351">
        <ele>136.715408</ele>
        <time>2022-04-06T18:33:39.278Z</time>
      </trkpt>
      <trkpt lat="51.679539" lon="8.692024">
        <ele>143.653952</ele>
        <time>2022-04-06T18:34:22.336Z</time>
      </trkpt>
      <trkpt lat="51.679058" lon="8.691059">
        <ele>148.630588</ele>
        <time>2022-04-06T18:34:59.346Z</time>
      </trkpt>
      <trkpt lat="51.678037" lon="8.689085">
        <ele>159.551115</ele>
        <time>2022-04-06T18:36:08.767Z</time>
      </trkpt>
      <trkpt lat="51.677577" lon="8.688466">
        <ele>162.251196</ele>
        <time>2022-04-06T18:36:28.649Z</time>
      </trkpt>
      <trkpt lat="51.677062" lon="8.688048">
        <ele>164.323767</ele>
        <time>2022-04-06T18:36:45.795Z</time>
      </trkpt>
      <trkpt lat="51.676618" lon="8.687847">
        <ele>165.981550</ele>
        <time>2022-04-06T18:36:57.896Z</time>
      </trkpt>
      <trkpt lat="51.675483" lon="8.687626">
        <ele>168.291835</ele>
        <time>2022-04-06T18:37:24.279Z</time>
      </trkpt>
      <trkpt lat="51.674149" lon="8.687335">
        <ele>169.576358</ele>
        <time>2022-04-06T18:37:49.081Z</time>
      </trkpt>
      <trkpt lat="51.672779" lon="8.686931">
        <ele>169.275897</ele>
        <time>2022-04-06T18:38:07.094Z</time>
      </trkpt>
      <trkpt lat="51.672561" lon="8.686844">
        <ele>169.370707</ele>
        <time>2022-04-06T18:38:09.964Z</time>
      </trkpt>
      <trkpt lat="51.672023" lon="8.686631">
        <ele>169.692638</ele>
        <time>2022-04-06T18:38:17.981Z</time>
      </trkpt>
      <trkpt lat="51.671533" lon="8.686373">
        <ele>169.992185</ele>
        <time>2022-04-06T18:38:26.946Z</time>
      </trkpt>
      <trkpt lat="51.670731" lon="8.685744">
        <ele>170.727158</ele>
        <time>2022-04-06T18:38:45.969Z</time>
      </trkpt>
      <trkpt lat="51.669862" lon="8.684819">
        <ele>171.991267</ele>
        <time>2022-04-06T18:39:08.987Z</time>
      </trkpt>
      <trkpt lat="51.668544" lon="8.683151">
        <ele>171.856157</ele>
        <time>2022-04-06T18:39:32.826Z</time>
      </trkpt>
      <trkpt lat="51.668155" lon="8.682597">
        <ele>171.593113</ele>
        <time>2022-04-06T18:39:38.808Z</time>
      </trkpt>
      <trkpt lat="51.668045" lon="8.682457">
        <ele>171.422230</ele>
        <time>2022-04-06T18:39:40.396Z</time>
      </trkpt>
      <trkpt lat="51.664469" lon="8.677224">
        <ele>165.069798</ele>
        <time>2022-04-06T18:40:37.047Z</time>
      </trkpt>
      <trkpt lat="51.663965" lon="8.676591">
        <ele>164.260390</ele>
        <time>2022-04-06T18:40:44.677Z</time>
      </trkpt>
      <trkpt lat="51.663401" lon="8.675883">
        <ele>163.365896</ele>
        <time>2022-04-06T18:40:53.130Z</time>
      </trkpt>
      <trkpt lat="51.661014" lon="8.673550">
        <ele>159.972917</ele>
        <time>2022-04-06T18:41:26.072Z</time>
      </trkpt>
      <trkpt lat="51.660038" lon="8.672723">
        <ele>159.340988</ele>
        <time>2022-04-06T18:41:40.238Z</time>
      </trkpt>
      <trkpt lat="51.660038" lon="8.672723">
        <ele>159.340988</ele>
        <time>2022-04-06T18:41:40.239Z</time>
      </trkpt>
      <trkpt lat="51.659361" lon="8.672256">
        <ele>159.051760</ele>
        <time>2022-04-06T18:41:50.747Z</time>
      </trkpt>
      <trkpt lat="51.659200" lon="8.672167">
        <ele>159.112676</ele>
        <time>2022-04-06T18:41:53.382Z</time>
      </trkpt>
      <trkpt lat="51.659022" lon="8.672067">
        <ele>159.180140</ele>
        <time>2022-04-06T18:41:56.280Z</time>
      </trkpt>
      <trkpt lat="51.658826" lon="8.671919">
        <ele>159.257603</ele>
        <time>2022-04-06T18:41:59.718Z</time>
      </trkpt>
      <trkpt lat="51.658728" lon="8.671844">
        <ele>159.296429</ele>
        <time>2022-04-06T18:42:01.405Z</time>
      </trkpt>
      <trkpt lat="51.658662" lon="8.671662">
        <ele>159.343235</ele>
        <time>2022-04-06T18:42:03.552Z</time>
      </trkpt>
      <trkpt lat="51.658545" lon="8.671628">
        <ele>159.385784</ele>
        <time>2022-04-06T18:42:05.492Z</time>
      </trkpt>
      <trkpt lat="51.658458" lon="8.671725">
        <ele>159.423644</ele>
        <time>2022-04-06T18:42:07.203Z</time>
      </trkpt>
      <trkpt lat="51.658352" lon="8.671712">
        <ele>159.461691</ele>
        <time>2022-04-06T18:42:08.991Z</time>
      </trkpt>
      <trkpt lat="51.658207" lon="8.671709">
        <ele>159.513590</ele>
        <time>2022-04-06T18:42:11.426Z</time>
      </trkpt>
      <trkpt lat="51.658007" lon="8.671661">
        <ele>159.585959</ele>
        <time>2022-04-06T18:42:14.862Z</time>
      </trkpt>
      <trkpt lat="51.657333" lon="8.671507">
        <ele>160.133798</ele>
        <time>2022-04-06T18:42:27.149Z</time>
      </trkpt>
      <trkpt lat="51.657097" lon="8.671462">
        <ele>160.358592</ele>
        <time>2022-04-06T18:42:32.150Z</time>
      </trkpt>
      <trkpt lat="51.655930" lon="8.671223">
        <ele>161.398743</ele>
        <time>2022-04-06T18:42:54.165Z</time>
      </trkpt>
      <trkpt lat="51.655791" lon="8.671195">
        <ele>161.454605</ele>
        <time>2022-04-06T18:42:56.951Z</time>
      </trkpt>
      <trkpt lat="51.655320" lon="8.671050">
        <ele>161.645828</ele>
        <time>2022-04-06T18:43:04.894Z</time>
      </trkpt>
      <trkpt lat="51.654797" lon="8.670825">
        <ele>161.861694</ele>
        <time>2022-04-06T18:43:13.659Z</time>
      </trkpt>
      <trkpt lat="51.654080" lon="8.670371">
        <ele>162.086866</ele>
        <time>2022-04-06T18:43:25.181Z</time>
      </trkpt>
      <trkpt lat="51.653636" lon="8.670090">
        <ele>162.129611</ele>
        <time>2022-04-06T18:43:31.973Z</time>
      </trkpt>
      <trkpt lat="51.652446" lon="8.669233">
        <ele>162.374299</ele>
        <time>2022-04-06T18:43:52.086Z</time>
      </trkpt>
      <trkpt lat="51.650823" lon="8.668108">
        <ele>163.602949</ele>
        <time>2022-04-06T18:44:23.229Z</time>
      </trkpt>
      <trkpt lat="51.650489" lon="8.667876">
        <ele>164.087146</ele>
        <time>2022-04-06T18:44:30.151Z</time>
      </trkpt>
      <trkpt lat="51.650216" lon="8.667718">
        <ele>164.473317</ele>
        <time>2022-04-06T18:44:35.757Z</time>
      </trkpt>
      <trkpt lat="51.649737" lon="8.667549">
        <ele>165.126118</ele>
        <time>2022-04-06T18:44:45.430Z</time>
      </trkpt>
      <trkpt lat="51.646963" lon="8.667110">
        <ele>170.932666</ele>
        <time>2022-04-06T18:45:48.992Z</time>
      </trkpt>
      <trkpt lat="51.646963" lon="8.667110">
        <ele>170.932666</ele>
        <time>2022-04-06T18:45:49.333Z</time>
      </trkpt>
      <trkpt lat="51.646665" lon="8.667025">
        <ele>171.834816</ele>
        <time>2022-04-06T18:45:56.144Z</time>
      </trkpt>
      <trkpt lat="51.646043" lon="8.666790">
        <ele>173.739284</ele>
        <time>2022-04-06T18:46:14.545Z</time>
      </trkpt>
      <trkpt lat="51.645169" lon="8.666558">
        <ele>176.424474</ele>
        <time>2022-04-06T18:46:41.060Z</time>
      </trkpt>
      <trkpt lat="51.645086" lon="8.666611">
        <ele>176.697515</ele>
        <time>2022-04-06T18:46:43.498Z</time>
      </trkpt>
      <trkpt lat="51.644442" lon="8.667446">
        <ele>179.225414</ele>
        <time>2022-04-06T18:47:05.328Z</time>
      </trkpt>
      <trkpt lat="51.644251" lon="8.667594">
        <ele>179.873571</ele>
        <time>2022-04-06T18:47:10.277Z</time>
      </trkpt>
      <trkpt lat="51.644012" lon="8.667610">
        <ele>180.408296</ele>
        <time>2022-04-06T18:47:16.364Z</time>
      </trkpt>
      <trkpt lat="51.643735" lon="8.667451">
        <ele>180.911884</ele>
        <time>2022-04-06T18:47:23.480Z</time>
      </trkpt>
      <trkpt lat="51.643534" lon="8.667202">
        <ele>181.346077</ele>
        <time>2022-04-06T18:47:29.282Z</time>
      </trkpt>
      <trkpt lat="51.642981" lon="8.666208">
        <ele>182.764843</ele>
        <time>2022-04-06T18:47:46.824Z</time>
      </trkpt>
      <trkpt lat="51.642748" lon="8.665989">
        <ele>183.226798</ele>
        <time>2022-04-06T18:47:51.849Z</time>
      </trkpt>
      <trkpt lat="51.642619" lon="8.665912">
        <ele>183.297393</ele>
        <time>2022-04-06T18:47:54.389Z</time>
      </trkpt>
      <trkpt lat="51.642462" lon="8.665828">
        <ele>183.372242</ele>
        <time>2022-04-06T18:47:57.214Z</time>
      </trkpt>
      <trkpt lat="51.642391" lon="8.665789">
        <ele>183.406182</ele>
        <time>2022-04-06T18:47:58.447Z</time>
      </trkpt>
      <trkpt lat="51.642266" lon="8.665725">
        <ele>183.465526</ele>
        <time>2022-04-06T18:48:00.765Z</time>
      </trkpt>
      <trkpt lat="51.641915" lon="8.665529">
        <ele>183.633605</ele>
        <time>2022-04-06T18:48:07.037Z</time>
      </trkpt>
      <trkpt lat="51.641843" lon="8.665493">
        <ele>183.667715</ele>
        <time>2022-04-06T18:48:08.307Z</time>
      </trkpt>
      <trkpt lat="51.641809" lon="8.665295">
        <ele>183.725399</ele>
        <time>2022-04-06T18:48:10.311Z</time>
      </trkpt>
      <trkpt lat="51.641742" lon="8.665261">
        <ele>183.757182</ele>
        <time>2022-04-06T18:48:11.542Z</time>
      </trkpt>
      <trkpt lat="51.641655" lon="8.665351">
        <ele>183.803960</ele>
        <time>2022-04-06T18:48:13.324Z</time>
      </trkpt>
      <trkpt lat="51.641645" lon="8.665275">
        <ele>183.825774</ele>
        <time>2022-04-06T18:48:14.133Z</time>
      </trkpt>
      <trkpt lat="51.641388" lon="8.665179">
        <ele>183.945140</ele>
        <time>2022-04-06T18:48:18.359Z</time>
      </trkpt>
      <trkpt lat="51.641110" lon="8.664923">
        <ele>183.992841</ele>
        <time>2022-04-06T18:48:23.126Z</time>
      </trkpt>
      <trkpt lat="51.640504" lon="8.664144">
        <ele>183.447825</ele>
        <time>2022-04-06T18:48:33.318Z</time>
      </trkpt>
      <trkpt lat="51.640504" lon="8.664144">
        <ele>183.447825</ele>
        <time>2022-04-06T18:48:33.321Z</time>
      </trkpt>
      <trkpt lat="51.640589" lon="8.663825">
        <ele>183.296354</ele>
        <time>2022-04-06T18:48:35.999Z</time>
      </trkpt>
      <trkpt lat="51.640754" lon="8.661105">
        <ele>182.008735</ele>
        <time>2022-04-06T18:48:56.528Z</time>
      </trkpt>
      <trkpt lat="51.640212" lon="8.659955">
        <ele>181.368864</ele>
        <time>2022-04-06T18:49:08.174Z</time>
      </trkpt>
      <trkpt lat="51.639735" lon="8.658954">
        <ele>181.617552</ele>
        <time>2022-04-06T18:49:19.974Z</time>
      </trkpt>
      <trkpt lat="51.637135" lon="8.653520">
        <ele>183.023945</ele>
        <time>2022-04-06T18:50:31.113Z</time>
      </trkpt>
      <trkpt lat="51.637056" lon="8.653485">
        <ele>183.052899</ele>
        <time>2022-04-06T18:50:32.323Z</time>
      </trkpt>
      <trkpt lat="51.636533" lon="8.651581">
        <ele>183.131121</ele>
        <time>2022-04-06T18:50:50.916Z</time>
      </trkpt>
      <trkpt lat="51.636175" lon="8.650002">
        <ele>182.947519</ele>
        <time>2022-04-06T18:51:06.856Z</time>
      </trkpt>
      <trkpt lat="51.636051" lon="8.649376">
        <ele>182.718261</ele>
        <time>2022-04-06T18:51:12.457Z</time>
      </trkpt>
      <trkpt lat="51.635778" lon="8.648093">
        <ele>182.245057</ele>
        <time>2022-04-06T18:51:27.329Z</time>
      </trkpt>
      <trkpt lat="51.635404" lon="8.646310">
        <ele>180.833606</ele>
        <time>2022-04-06T18:51:47.341Z</time>
      </trkpt>
      <trkpt lat="51.635158" lon="8.645131">
        <ele>179.788405</ele>
        <time>2022-04-06T18:51:59.575Z</time>
      </trkpt>
      <trkpt lat="51.634685" lon="8.642821">
        <ele>178.264757</ele>
        <time>2022-04-06T18:52:25.586Z</time>
      </trkpt>
      <trkpt lat="51.634811" lon="8.638455">
        <ele>176.682748</ele>
        <time>2022-04-06T18:53:16.750Z</time>
      </trkpt>
      <trkpt lat="51.634755" lon="8.637413">
        <ele>176.166252</ele>
        <time>2022-04-06T18:53:28.770Z</time>
      </trkpt>
      <trkpt lat="51.634618" lon="8.634479">
        <ele>173.477583</ele>
        <time>2022-04-06T18:53:59.001Z</time>
      </trkpt>
      <trkpt lat="51.634577" lon="8.630272">
        <ele>168.047457</ele>
        <time>2022-04-06T18:54:38.657Z</time>
      </trkpt>
      <trkpt lat="51.634396" lon="8.628261">
        <ele>167.165929</ele>
        <time>2022-04-06T18:55:01.404Z</time>
      </trkpt>
      <trkpt lat="51.634227" lon="8.627679">
        <ele>167.099867</ele>
        <time>2022-04-06T18:55:10.111Z</time>
      </trkpt>
      <trkpt lat="51.634085" lon="8.622778">
        <ele>171.486284</ele>
        <time>2022-04-06T18:56:30.798Z</time>
      </trkpt>
      <trkpt lat="51.634056" lon="8.622135">
        <ele>172.112945</ele>
        <time>2022-04-06T18:56:42.135Z</time>
      </trkpt>
      <trkpt lat="51.634162" lon="8.621081">
        <ele>171.421484</ele>
        <time>2022-04-06T18:56:59.299Z</time>
      </trkpt>
      <trkpt lat="51.634937" lon="8.614283">
        <ele>165.338895</ele>
        <time>2022-04-06T18:58:07.703Z</time>
      </trkpt>
      <trkpt lat="51.635529" lon="8.608816">
        <ele>159.775648</ele>
        <time>2022-04-06T18:59:03.142Z</time>
      </trkpt>
      <trkpt lat="51.635707" lon="8.607333">
        <ele>158.759114</ele>
        <time>2022-04-06T18:59:15.242Z</time>
      </trkpt>
      <trkpt lat="51.636491" lon="8.600428">
        <ele>156.367685</ele>
        <time>2022-04-06T19:00:12.660Z</time>
      </trkpt>
      <trkpt lat="51.636672" lon="8.598768">
        <ele>155.557851</ele>
        <time>2022-04-06T19:00:26.629Z</time>
      </trkpt>
      <trkpt lat="51.636969" lon="8.596065">
        <ele>152.847508</ele>
        <time>2022-04-06T19:00:46.408Z</time>
      </trkpt>
      <trkpt lat="51.637040" lon="8.595513">
        <ele>151.571857</ele>
        <time>2022-04-06T19:00:50.110Z</time>
      </trkpt>
      <trkpt lat="51.637042" lon="8.595491">
        <ele>151.521542</ele>
        <time>2022-04-06T19:00:50.259Z</time>
      </trkpt>
      <trkpt lat="51.638127" lon="8.587137">
        <ele>131.566232</ele>
        <time>2022-04-06T19:01:41.993Z</time>
      </trkpt>
      <trkpt lat="51.638243" lon="8.585984">
        <ele>128.920912</ele>
        <time>2022-04-06T19:01:49.092Z</time>
      </trkpt>
      <trkpt lat="51.638243" lon="8.585984">
        <ele>128.920912</ele>
        <time>2022-04-06T19:01:49.098Z</time>
      </trkpt>
      <trkpt lat="51.638243" lon="8.585984">
        <ele>128.920912</ele>
        <time>2022-04-06T19:01:49.157Z</time>
      </trkpt>
      <trkpt lat="51.639575" lon="8.586987">
        <ele>124.753485</ele>
        <time>2022-04-06T19:02:04.223Z</time>
      </trkpt>
      <trkpt lat="51.640230" lon="8.587439">
        <ele>123.137619</ele>
        <time>2022-04-06T19:02:12.263Z</time>
      </trkpt>
      <trkpt lat="51.640346" lon="8.587519">
        <ele>122.851478</ele>
        <time>2022-04-06T19:02:13.713Z</time>
      </trkpt>
      <trkpt lat="51.641168" lon="8.588161">
        <ele>121.818314</ele>
        <time>2022-04-06T19:02:24.435Z</time>
      </trkpt>
      <trkpt lat="51.643610" lon="8.589856">
        <ele>119.840928</ele>
        <time>2022-04-06T19:02:58.610Z</time>
      </trkpt>
      <trkpt lat="51.646047" lon="8.591416">
        <ele>119.002923</ele>
        <time>2022-04-06T19:03:36.005Z</time>
      </trkpt>
      <trkpt lat="51.647254" lon="8.592203">
        <ele>118.079698</ele>
        <time>2022-04-06T19:03:52.405Z</time>
      </trkpt>
      <trkpt lat="51.647814" lon="8.592569">
        <ele>117.194506</ele>
        <time>2022-04-06T19:03:59.499Z</time>
      </trkpt>
      <trkpt lat="51.649259" lon="8.593595">
        <ele>114.677945</ele>
        <time>2022-04-06T19:04:17.248Z</time>
      </trkpt>
      <trkpt lat="51.649766" lon="8.593914">
        <ele>113.694138</ele>
        <time>2022-04-06T19:04:23.258Z</time>
      </trkpt>
      <trkpt lat="51.650818" lon="8.594292">
        <ele>111.911569</ele>
        <time>2022-04-06T19:04:35.268Z</time>
      </trkpt>
      <trkpt lat="51.651714" lon="8.594302">
        <ele>110.647657</ele>
        <time>2022-04-06T19:04:45.652Z</time>
      </trkpt>
      <trkpt lat="51.652713" lon="8.593968">
        <ele>109.593772</ele>
        <time>2022-04-06T19:04:58.179Z</time>
      </trkpt>
      <trkpt lat="51.655060" lon="8.593014">
        <ele>107.975189</ele>
        <time>2022-04-06T19:05:29.967Z</time>
      </trkpt>
      <trkpt lat="51.656926" lon="8.592249">
        <ele>106.306076</ele>
        <time>2022-04-06T19:05:54.156Z</time>
      </trkpt>
      <trkpt lat="51.658989" lon="8.591407">
        <ele>103.816069</ele>
        <time>2022-04-06T19:06:19.159Z</time>
      </trkpt>
      <trkpt lat="51.661467" lon="8.590680">
        <ele>101.511293</ele>
        <time>2022-04-06T19:06:50.268Z</time>
      </trkpt>
      <trkpt lat="51.661937" lon="8.590542">
        <ele>101.172014</ele>
        <time>2022-04-06T19:06:56.378Z</time>
      </trkpt>
      <trkpt lat="51.662925" lon="8.590262">
        <ele>100.530566</ele>
        <time>2022-04-06T19:07:09.527Z</time>
      </trkpt>
      <trkpt lat="51.663965" lon="8.589827">
        <ele>100.119403</ele>
        <time>2022-04-06T19:07:23.976Z</time>
      </trkpt>
      <trkpt lat="51.665008" lon="8.589210">
        <ele>99.912509</ele>
        <time>2022-04-06T19:07:39.474Z</time>
      </trkpt>
      <trkpt lat="51.665197" lon="8.589085">
        <ele>99.908215</ele>
        <time>2022-04-06T19:07:42.511Z</time>
      </trkpt>
      <trkpt lat="51.665538" lon="8.588868">
        <ele>99.900508</ele>
        <time>2022-04-06T19:07:48.051Z</time>
      </trkpt>
      <trkpt lat="51.665689" lon="8.588848">
        <ele>99.897323</ele>
        <time>2022-04-06T19:07:50.343Z</time>
      </trkpt>
      <trkpt lat="51.665757" lon="8.588839">
        <ele>99.895889</ele>
        <time>2022-04-06T19:07:51.457Z</time>
      </trkpt>
      <trkpt lat="51.665914" lon="8.588909">
        <ele>99.892465</ele>
        <time>2022-04-06T19:07:53.991Z</time>
      </trkpt>
      <trkpt lat="51.666014" lon="8.588782">
        <ele>99.889789</ele>
        <time>2022-04-06T19:07:55.988Z</time>
      </trkpt>
      <trkpt lat="51.666034" lon="8.588643">
        <ele>99.887928</ele>
        <time>2022-04-06T19:07:57.418Z</time>
      </trkpt>
      <trkpt lat="51.666113" lon="8.588543">
        <ele>99.897267</ele>
        <time>2022-04-06T19:07:58.952Z</time>
      </trkpt>
      <trkpt lat="51.666188" lon="8.588448">
        <ele>99.909899</ele>
        <time>2022-04-06T19:08:00.397Z</time>
      </trkpt>
      <trkpt lat="51.666689" lon="8.588162">
        <ele>99.980286</ele>
        <time>2022-04-06T19:08:11.518Z</time>
      </trkpt>
      <trkpt lat="51.667308" lon="8.587948">
        <ele>100.064127</ele>
        <time>2022-04-06T19:08:24.571Z</time>
      </trkpt>
      <trkpt lat="51.667866" lon="8.587759">
        <ele>100.150902</ele>
        <time>2022-04-06T19:08:36.295Z</time>
      </trkpt>
      <trkpt lat="51.668880" lon="8.587453">
        <ele>100.397046</ele>
        <time>2022-04-06T19:08:57.681Z</time>
      </trkpt>
      <trkpt lat="51.668971" lon="8.587426">
        <ele>100.419123</ele>
        <time>2022-04-06T19:08:59.582Z</time>
      </trkpt>
      <trkpt lat="51.669587" lon="8.587285">
        <ele>100.599072</ele>
        <time>2022-04-06T19:09:13.263Z</time>
      </trkpt>
      <trkpt lat="51.669730" lon="8.587275">
        <ele>100.717108</ele>
        <time>2022-04-06T19:09:16.240Z</time>
      </trkpt>
      <trkpt lat="51.670225" lon="8.587345">
        <ele>101.126878</ele>
        <time>2022-04-06T19:09:27.437Z</time>
      </trkpt>
      <trkpt lat="51.670338" lon="8.587369">
        <ele>101.220868</ele>
        <time>2022-04-06T19:09:30.127Z</time>
      </trkpt>
      <trkpt lat="51.670653" lon="8.587457">
        <ele>101.484504</ele>
        <time>2022-04-06T19:09:37.787Z</time>
      </trkpt>
      <trkpt lat="51.670965" lon="8.587566">
        <ele>101.747765</ele>
        <time>2022-04-06T19:09:45.773Z</time>
      </trkpt>
      <trkpt lat="51.671224" lon="8.587656">
        <ele>101.966253</ele>
        <time>2022-04-06T19:09:52.500Z</time>
      </trkpt>
      <trkpt lat="51.671586" lon="8.587782">
        <ele>102.196105</ele>
        <time>2022-04-06T19:10:01.899Z</time>
      </trkpt>
      <trkpt lat="51.671769" lon="8.587823">
        <ele>102.299201</ele>
        <time>2022-04-06T19:10:06.313Z</time>
      </trkpt>
      <trkpt lat="51.672737" lon="8.588178">
        <ele>102.853145</ele>
        <time>2022-04-06T19:10:27.566Z</time>
      </trkpt>
      <trkpt lat="51.672909" lon="8.588244">
        <ele>102.951802</ele>
        <time>2022-04-06T19:10:31.577Z</time>
      </trkpt>
      <trkpt lat="51.673542" lon="8.588473">
        <ele>102.945015</ele>
        <time>2022-04-06T19:10:45.641Z</time>
      </trkpt>
      <trkpt lat="51.673697" lon="8.588529">
        <ele>102.913538</ele>
        <time>2022-04-06T19:10:48.733Z</time>
      </trkpt>
      <trkpt lat="51.673935" lon="8.588614">
        <ele>102.865232</ele>
        <time>2022-04-06T19:10:53.552Z</time>
      </trkpt>
      <trkpt lat="51.674210" lon="8.588714">
        <ele>102.809368</ele>
        <time>2022-04-06T19:10:58.905Z</time>
      </trkpt>
      <trkpt lat="51.674240" lon="8.588849">
        <ele>102.791745</ele>
        <time>2022-04-06T19:11:00.490Z</time>
      </trkpt>
      <trkpt lat="51.674279" lon="8.588890">
        <ele>102.782520</ele>
        <time>2022-04-06T19:11:01.297Z</time>
      </trkpt>
      <trkpt lat="51.674412" lon="8.588805">
        <ele>102.754169</ele>
        <time>2022-04-06T19:11:03.949Z</time>
      </trkpt>
      <trkpt lat="51.674391" lon="8.588606">
        <ele>102.729363</ele>
        <time>2022-04-06T19:11:06.165Z</time>
      </trkpt>
      <trkpt lat="51.674332" lon="8.588558">
        <ele>102.716267</ele>
        <time>2022-04-06T19:11:07.301Z</time>
      </trkpt>
      <trkpt lat="51.674352" lon="8.588330">
        <ele>102.687970</ele>
        <time>2022-04-06T19:11:10.010Z</time>
      </trkpt>
      <trkpt lat="51.674644" lon="8.584892">
        <ele>101.386802</ele>
        <time>2022-04-06T19:11:49.409Z</time>
      </trkpt>
      <trkpt lat="51.674669" lon="8.584427">
        <ele>101.207912</ele>
        <time>2022-04-06T19:11:54.577Z</time>
      </trkpt>
      <trkpt lat="51.674524" lon="8.583581">
        <ele>100.871506</ele>
        <time>2022-04-06T19:12:04.383Z</time>
      </trkpt>
      <trkpt lat="51.674315" lon="8.582539">
        <ele>100.474665</ele>
        <time>2022-04-06T19:12:16.821Z</time>
      </trkpt>
      <trkpt lat="51.674219" lon="8.581709">
        <ele>100.374477</ele>
        <time>2022-04-06T19:12:26.602Z</time>
      </trkpt>
      <trkpt lat="51.673930" lon="8.579282">
        <ele>100.230077</ele>
        <time>2022-04-06T19:12:57.151Z</time>
      </trkpt>
      <trkpt lat="51.673861" lon="8.579100">
        <ele>100.268045</ele>
        <time>2022-04-06T19:12:59.968Z</time>
      </trkpt>
      <trkpt lat="51.673896" lon="8.578916">
        <ele>100.302302</ele>
        <time>2022-04-06T19:13:02.496Z</time>
      </trkpt>
      <trkpt lat="51.673489" lon="8.575399">
        <ele>101.023008</ele>
        <time>2022-04-06T19:13:51.236Z</time>
      </trkpt>
      <trkpt lat="51.673054" lon="8.571406">
        <ele>101.885757</ele>
        <time>2022-04-06T19:14:45.001Z</time>
      </trkpt>
      <trkpt lat="51.672764" lon="8.569878">
        <ele>102.487811</ele>
        <time>2022-04-06T19:15:07.353Z</time>
      </trkpt>
      <trkpt lat="51.671944" lon="8.565698">
        <ele>104.304826</ele>
        <time>2022-04-06T19:16:10.253Z</time>
      </trkpt>
      <trkpt lat="51.671751" lon="8.564716">
        <ele>104.395600</ele>
        <time>2022-04-06T19:16:23.946Z</time>
      </trkpt>
      <trkpt lat="51.671709" lon="8.564500">
        <ele>104.415548</ele>
        <time>2022-04-06T19:16:26.982Z</time>
      </trkpt>
      <trkpt lat="51.672304" lon="8.564251">
        <ele>104.502892</ele>
        <time>2022-04-06T19:16:36.273Z</time>
      </trkpt>
      <trkpt lat="51.673259" lon="8.563838">
        <ele>104.371240</ele>
        <time>2022-04-06T19:16:49.985Z</time>
      </trkpt>
      <trkpt lat="51.674450" lon="8.563392">
        <ele>103.986663</ele>
        <time>2022-04-06T19:17:06.616Z</time>
      </trkpt>
      <trkpt lat="51.675732" lon="8.563243">
        <ele>103.563083</ele>
        <time>2022-04-06T19:17:24.143Z</time>
      </trkpt>
      <trkpt lat="51.676120" lon="8.563225">
        <ele>103.435165</ele>
        <time>2022-04-06T19:17:29.616Z</time>
      </trkpt>
      <trkpt lat="51.676430" lon="8.563210">
        <ele>103.279493</ele>
        <time>2022-04-06T19:17:34.049Z</time>
      </trkpt>
      <trkpt lat="51.676721" lon="8.563167">
        <ele>103.107111</ele>
        <time>2022-04-06T19:17:38.095Z</time>
      </trkpt>
      <trkpt lat="51.677389" lon="8.563187">
        <ele>102.712986</ele>
        <time>2022-04-06T19:17:50.438Z</time>
      </trkpt>
      <trkpt lat="51.677604" lon="8.563290">
        <ele>102.580679</ele>
        <time>2022-04-06T19:17:54.426Z</time>
      </trkpt>
      <trkpt lat="51.677851" lon="8.563450">
        <ele>102.423657</ele>
        <time>2022-04-06T19:17:59.079Z</time>
      </trkpt>
      <trkpt lat="51.678322" lon="8.564065">
        <ele>101.960748</ele>
        <time>2022-04-06T19:18:09.454Z</time>
      </trkpt>
      <trkpt lat="51.678393" lon="8.564217">
        <ele>101.864304</ele>
        <time>2022-04-06T19:18:11.407Z</time>
      </trkpt>
      <trkpt lat="51.678843" lon="8.565138">
        <ele>101.270058</ele>
        <time>2022-04-06T19:18:24.053Z</time>
      </trkpt>
      <trkpt lat="51.679156" lon="8.565604">
        <ele>100.921898</ele>
        <time>2022-04-06T19:18:31.960Z</time>
      </trkpt>
      <trkpt lat="51.679422" lon="8.565824">
        <ele>100.863131</ele>
        <time>2022-04-06T19:18:37.631Z</time>
      </trkpt>
      <trkpt lat="51.679890" lon="8.565969">
        <ele>100.850100</ele>
        <time>2022-04-06T19:18:47.398Z</time>
      </trkpt>
      <trkpt lat="51.679983" lon="8.565973">
        <ele>100.847556</ele>
        <time>2022-04-06T19:18:49.353Z</time>
      </trkpt>
      <trkpt lat="51.680621" lon="8.565844">
        <ele>100.829975</ele>
        <time>2022-04-06T19:19:03.076Z</time>
      </trkpt>
      <trkpt lat="51.681435" lon="8.565664">
        <ele>100.676987</ele>
        <time>2022-04-06T19:19:19.405Z</time>
      </trkpt>
      <trkpt lat="51.681483" lon="8.566038">
        <ele>100.604812</ele>
        <time>2022-04-06T19:19:24.126Z</time>
      </trkpt>
      <trkpt lat="51.681541" lon="8.566504">
        <ele>100.514993</ele>
        <time>2022-04-06T19:19:29.579Z</time>
      </trkpt>
      <trkpt lat="51.681435" lon="8.567333">
        <ele>100.355037</ele>
        <time>2022-04-06T19:19:39.175Z</time>
      </trkpt>
      <trkpt lat="51.681435" lon="8.567333">
        <ele>100.355037</ele>
        <time>2022-04-06T19:19:39.182Z</time>
      </trkpt>
      <trkpt lat="51.681923" lon="8.567235">
        <ele>100.282382</ele>
        <time>2022-04-06T19:19:48.384Z</time>
      </trkpt>
      <trkpt lat="51.682961" lon="8.566957">
        <ele>100.331203</ele>
        <time>2022-04-06T19:20:10.104Z</time>
      </trkpt>
      <trkpt lat="51.683197" lon="8.566892">
        <ele>100.342312</ele>
        <time>2022-04-06T19:20:15.465Z</time>
      </trkpt>
      <trkpt lat="51.683197" lon="8.566892">
        <ele>100.342312</ele>
        <time>2022-04-06T19:20:15.470Z</time>
      </trkpt>
      <trkpt lat="51.683197" lon="8.566892">
        <ele>100.342312</ele>
        <time>2022-04-06T19:20:15.531Z</time>
      </trkpt>
      <trkpt lat="51.683072" lon="8.566079">
        <ele>100.167771</ele>
        <time>2022-04-06T19:20:24.187Z</time>
      </trkpt>
      <trkpt lat="51.683035" lon="8.565565">
        <ele>99.908241</ele>
        <time>2022-04-06T19:20:28.764Z</time>
      </trkpt>
      <trkpt lat="51.683028" lon="8.565448">
        <ele>99.849287</ele>
        <time>2022-04-06T19:20:29.768Z</time>
      </trkpt>
      <trkpt lat="51.683023" lon="8.565319">
        <ele>99.784460</ele>
        <time>2022-04-06T19:20:30.859Z</time>
      </trkpt>
      <trkpt lat="51.683261" lon="8.565008">
        <ele>99.536674</ele>
        <time>2022-04-06T19:20:34.829Z</time>
      </trkpt>
      <trkpt lat="51.683712" lon="8.564711">
        <ele>99.142603</ele>
        <time>2022-04-06T19:20:40.857Z</time>
      </trkpt>
      <trkpt lat="51.683712" lon="8.564711">
        <ele>99.142603</ele>
        <time>2022-04-06T19:20:40.868Z</time>
      </trkpt>
      <trkpt lat="51.683730" lon="8.564756">
        <ele>99.115744</ele>
        <time>2022-04-06T19:20:41.246Z</time>
      </trkpt>
      <trkpt lat="51.683897" lon="8.564853">
        <ele>98.972157</ele>
        <time>2022-04-06T19:20:43.204Z</time>
      </trkpt>
      <trkpt lat="51.684237" lon="8.564861">
        <ele>98.182113</ele>
        <time>2022-04-06T19:20:46.764Z</time>
      </trkpt>
      <trkpt lat="51.684176" lon="8.563902">
        <ele>96.475341</ele>
        <time>2022-04-06T19:20:52.901Z</time>
      </trkpt>
      <trkpt lat="51.684306" lon="8.563565">
        <ele>95.772640</ele>
        <time>2022-04-06T19:20:55.416Z</time>
      </trkpt>
      <trkpt lat="51.684548" lon="8.563451">
        <ele>95.052718</ele>
        <time>2022-04-06T19:20:57.903Z</time>
      </trkpt>
      <trkpt lat="51.684829" lon="8.563569">
        <ele>94.223550</ele>
        <time>2022-04-06T19:21:00.820Z</time>
      </trkpt>
      <trkpt lat="51.684977" lon="8.563561">
        <ele>93.800686</ele>
        <time>2022-04-06T19:21:02.402Z</time>
      </trkpt>
      <trkpt lat="51.685371" lon="8.563444">
        <ele>92.919486</ele>
        <time>2022-04-06T19:21:06.579Z</time>
      </trkpt>
      <trkpt lat="51.685574" lon="8.563285">
        <ele>92.427951</ele>
        <time>2022-04-06T19:21:08.899Z</time>
      </trkpt>
      <trkpt lat="51.685962" lon="8.562776">
        <ele>91.338611</ele>
        <time>2022-04-06T19:21:14.244Z</time>
      </trkpt>
      <trkpt lat="51.686146" lon="8.562428">
        <ele>90.720990</ele>
        <time>2022-04-06T19:21:17.365Z</time>
      </trkpt>
      <trkpt lat="51.686598" lon="8.560617">
        <ele>89.336645</ele>
        <time>2022-04-06T19:21:32.040Z</time>
      </trkpt>
      <trkpt lat="51.686636" lon="8.560460">
        <ele>89.270755</ele>
        <time>2022-04-06T19:21:33.436Z</time>
      </trkpt>
      <trkpt lat="51.687269" lon="8.557589">
        <ele>88.478494</ele>
        <time>2022-04-06T19:22:00.015Z</time>
      </trkpt>
      <trkpt lat="51.687394" lon="8.557366">
        <ele>88.435040</ele>
        <time>2022-04-06T19:22:02.725Z</time>
      </trkpt>
      <trkpt lat="51.688029" lon="8.556727">
        <ele>88.253067</ele>
        <time>2022-04-06T19:22:13.183Z</time>
      </trkpt>
      <trkpt lat="51.688101" lon="8.556570">
        <ele>88.218378</ele>
        <time>2022-04-06T19:22:14.795Z</time>
      </trkpt>
      <trkpt lat="51.687968" lon="8.554867">
        <ele>87.913492</ele>
        <time>2022-04-06T19:22:29.223Z</time>
      </trkpt>
      <trkpt lat="51.687976" lon="8.554548">
        <ele>87.856783</ele>
        <time>2022-04-06T19:22:32.001Z</time>
      </trkpt>
      <trkpt lat="51.688385" lon="8.553845">
        <ele>87.794118</ele>
        <time>2022-04-06T19:22:40.470Z</time>
      </trkpt>
      <trkpt lat="51.689229" lon="8.552430">
        <ele>87.855529</ele>
        <time>2022-04-06T19:22:59.075Z</time>
      </trkpt>
      <trkpt lat="51.690882" lon="8.549640">
        <ele>88.110147</ele>
        <time>2022-04-06T19:23:36.662Z</time>
      </trkpt>
      <trkpt lat="51.691070" lon="8.549311">
        <ele>88.035612</ele>
        <time>2022-04-06T19:23:40.489Z</time>
      </trkpt>
      <trkpt lat="51.692197" lon="8.547471">
        <ele>87.674108</ele>
        <time>2022-04-06T19:24:01.761Z</time>
      </trkpt>
      <trkpt lat="51.692273" lon="8.547230">
        <ele>87.656958</ele>
        <time>2022-04-06T19:24:03.941Z</time>
      </trkpt>
      <trkpt lat="51.693838" lon="8.537662">
        <ele>87.063358</ele>
        <time>2022-04-06T19:25:33.781Z</time>
      </trkpt>
      <trkpt lat="51.694190" lon="8.535489">
        <ele>86.819152</ele>
        <time>2022-04-06T19:25:53.612Z</time>
      </trkpt>
      <trkpt lat="51.694824" lon="8.531566">
        <ele>86.210263</ele>
        <time>2022-04-06T19:26:28.195Z</time>
      </trkpt>
      <trkpt lat="51.694858" lon="8.531386">
        <ele>86.181020</ele>
        <time>2022-04-06T19:26:29.854Z</time>
      </trkpt>
      <trkpt lat="51.694858" lon="8.531386">
        <ele>86.181020</ele>
        <time>2022-04-06T19:26:29.873Z</time>
      </trkpt>
      <trkpt lat="51.694858" lon="8.531386">
        <ele>86.181020</ele>
        <time>2022-04-06T19:26:29.874Z</time>
      </trkpt>
      <trkpt lat="51.692389" lon="8.527099">
        <ele>86.316589</ele>
        <time>2022-04-06T19:27:24.911Z</time>
      </trkpt>
      <trkpt lat="51.691901" lon="8.526251">
        <ele>86.182867</ele>
        <time>2022-04-06T19:27:34.990Z</time>
      </trkpt>
      <trkpt lat="51.690301" lon="8.523378">
        <ele>85.681136</ele>
        <time>2022-04-06T19:28:08.640Z</time>
      </trkpt>
      <trkpt lat="51.688445" lon="8.520153">
        <ele>85.159792</ele>
        <time>2022-04-06T19:28:46.587Z</time>
      </trkpt>
      <trkpt lat="51.686902" lon="8.517393">
        <ele>85.303223</ele>
        <time>2022-04-06T19:29:22.234Z</time>
      </trkpt>
      <trkpt lat="51.686653" lon="8.516957">
        <ele>85.328671</ele>
        <time>2022-04-06T19:29:27.780Z</time>
      </trkpt>
      <trkpt lat="51.683603" lon="8.511596">
        <ele>85.046165</ele>
        <time>2022-04-06T19:30:33.410Z</time>
      </trkpt>
      <trkpt lat="51.682951" lon="8.511409">
        <ele>84.924248</ele>
        <time>2022-04-06T19:30:42.895Z</time>
      </trkpt>
      <trkpt lat="51.681231" lon="8.510951">
        <ele>84.574151</ele>
        <time>2022-04-06T19:31:07.120Z</time>
      </trkpt>
      <trkpt lat="51.680978" lon="8.510883">
        <ele>84.519576</ele>
        <time>2022-04-06T19:31:10.772Z</time>
      </trkpt>
      <trkpt lat="51.680040" lon="8.510604">
        <ele>84.473474</ele>
        <time>2022-04-06T19:31:24.245Z</time>
      </trkpt>
      <trkpt lat="51.679539" lon="8.510449">
        <ele>84.551679</ele>
        <time>2022-04-06T19:31:32.151Z</time>
      </trkpt>
      <trkpt lat="51.679421" lon="8.510440">
        <ele>84.569789</ele>
        <time>2022-04-06T19:31:34.020Z</time>
      </trkpt>
      <trkpt lat="51.678801" lon="8.510705">
        <ele>84.668118</ele>
        <time>2022-04-06T19:31:44.467Z</time>
      </trkpt>
      <trkpt lat="51.678618" lon="8.510798">
        <ele>84.722024</ele>
        <time>2022-04-06T19:31:47.570Z</time>
      </trkpt>
      <trkpt lat="51.677785" lon="8.511138">
        <ele>85.084117</ele>
        <time>2022-04-06T19:32:01.382Z</time>
      </trkpt>
      <trkpt lat="51.676465" lon="8.511529">
        <ele>85.691856</ele>
        <time>2022-04-06T19:32:24.263Z</time>
      </trkpt>
      <trkpt lat="51.675539" lon="8.505261">
        <ele>87.412121</ele>
        <time>2022-04-06T19:33:52.887Z</time>
      </trkpt>
      <trkpt lat="51.675640" lon="8.495364">
        <ele>88.246434</ele>
        <time>2022-04-06T19:36:00.001Z</time>
      </trkpt>
      <trkpt lat="51.674847" lon="8.486315">
        <ele>86.247702</ele>
        <time>2022-04-06T19:37:16.019Z</time>
      </trkpt>
      <trkpt lat="51.668591" lon="8.487873">
        <ele>88.587562</ele>
        <time>2022-04-06T19:39:01.999Z</time>
      </trkpt>
      <trkpt lat="51.668124" lon="8.485171">
        <ele>88.250761</ele>
        <time>2022-04-06T19:39:34.455Z</time>
      </trkpt>
      <trkpt lat="51.668112" lon="8.485102">
        <ele>88.232856</ele>
        <time>2022-04-06T19:39:35.262Z</time>
      </trkpt>
      <trkpt lat="51.667752" lon="8.483016">
        <ele>87.825803</ele>
        <time>2022-04-06T19:40:00.902Z</time>
      </trkpt>
      <trkpt lat="51.667731" lon="8.482860">
        <ele>87.809136</ele>
        <time>2022-04-06T19:40:02.825Z</time>
      </trkpt>
      <trkpt lat="51.667630" lon="8.478361">
        <ele>87.707126</ele>
        <time>2022-04-06T19:40:58.256Z</time>
      </trkpt>
      <trkpt lat="51.665290" lon="8.475917">
        <ele>89.587455</ele>
        <time>2022-04-06T19:42:02.411Z</time>
      </trkpt>
      <trkpt lat="51.664356" lon="8.474764">
        <ele>90.661173</ele>
        <time>2022-04-06T19:42:31.265Z</time>
      </trkpt>
      <trkpt lat="51.664065" lon="8.474408">
        <ele>91.012702</ele>
        <time>2022-04-06T19:42:38.229Z</time>
      </trkpt>
      <trkpt lat="51.663102" lon="8.473599">
        <ele>92.057677</ele>
        <time>2022-04-06T19:42:58.474Z</time>
      </trkpt>
      <trkpt lat="51.662737" lon="8.473060">
        <ele>92.362427</ele>
        <time>2022-04-06T19:43:07.321Z</time>
      </trkpt>
      <trkpt lat="51.662411" lon="8.472709">
        <ele>92.562576</ele>
        <time>2022-04-06T19:43:14.250Z</time>
      </trkpt>
      <trkpt lat="51.661886" lon="8.472093">
        <ele>92.894095</ele>
        <time>2022-04-06T19:43:24.929Z</time>
      </trkpt>
      <trkpt lat="51.661205" lon="8.471270">
        <ele>93.279557</ele>
        <time>2022-04-06T19:43:38.350Z</time>
      </trkpt>
      <trkpt lat="51.661113" lon="8.470232">
        <ele>93.544236</ele>
        <time>2022-04-06T19:43:52.175Z</time>
      </trkpt>
      <trkpt lat="51.660936" lon="8.469561">
        <ele>93.728293</ele>
        <time>2022-04-06T19:44:02.038Z</time>
      </trkpt>
      <trkpt lat="51.659623" lon="8.464631">
        <ele>96.174658</ele>
        <time>2022-04-06T19:45:19.656Z</time>
      </trkpt>
      <trkpt lat="51.659482" lon="8.464365">
        <ele>96.340011</ele>
        <time>2022-04-06T19:45:24.746Z</time>
      </trkpt>
      <trkpt lat="51.658732" lon="8.463720">
        <ele>96.980834</ele>
        <time>2022-04-06T19:45:44.546Z</time>
      </trkpt>
      <trkpt lat="51.658636" lon="8.463647">
        <ele>97.060448</ele>
        <time>2022-04-06T19:45:47.002Z</time>
      </trkpt>
      <trkpt lat="51.658477" lon="8.463520">
        <ele>97.193545</ele>
        <time>2022-04-06T19:45:51.101Z</time>
      </trkpt>
      <trkpt lat="51.658376" lon="8.463362">
        <ele>97.299109</ele>
        <time>2022-04-06T19:45:53.580Z</time>
      </trkpt>
      <trkpt lat="51.658261" lon="8.462986">
        <ele>97.494169</ele>
        <time>2022-04-06T19:45:58.132Z</time>
      </trkpt>
      <trkpt lat="51.657205" lon="8.456459">
        <ele>100.563896</ele>
        <time>2022-04-06T19:47:12.628Z</time>
      </trkpt>
      <trkpt lat="51.657088" lon="8.455710">
        <ele>100.822081</ele>
        <time>2022-04-06T19:47:21.012Z</time>
      </trkpt>
      <trkpt lat="51.656858" lon="8.454272">
        <ele>101.318485</ele>
        <time>2022-04-06T19:47:36.701Z</time>
      </trkpt>
      <trkpt lat="51.656802" lon="8.453918">
        <ele>101.440605</ele>
        <time>2022-04-06T19:47:40.584Z</time>
      </trkpt>
      <trkpt lat="51.656723" lon="8.452980">
        <ele>101.693908</ele>
        <time>2022-04-06T19:47:49.998Z</time>
      </trkpt>
      <trkpt lat="51.656699" lon="8.452873">
        <ele>101.722345</ele>
        <time>2022-04-06T19:47:51.072Z</time>
      </trkpt>
      <trkpt lat="51.656664" lon="8.452899">
        <ele>101.737870</ele>
        <time>2022-04-06T19:47:51.700Z</time>
      </trkpt>
      <trkpt lat="51.656351" lon="8.453172">
        <ele>101.881245</ele>
        <time>2022-04-06T19:47:57.290Z</time>
      </trkpt>
      <trkpt lat="51.654945" lon="8.454417">
        <ele>102.527640</ele>
        <time>2022-04-06T19:48:24.228Z</time>
      </trkpt>
      <trkpt lat="51.654906" lon="8.454452">
        <ele>102.545630</ele>
        <time>2022-04-06T19:48:24.960Z</time>
      </trkpt>
      <trkpt lat="51.654053" lon="8.455211">
        <ele>102.938316</ele>
        <time>2022-04-06T19:48:40.785Z</time>
      </trkpt>
      <trkpt lat="51.653664" lon="8.455557">
        <ele>102.909334</ele>
        <time>2022-04-06T19:48:47.817Z</time>
      </trkpt>
      <trkpt lat="51.653293" lon="8.455888">
        <ele>102.859387</ele>
        <time>2022-04-06T19:48:54.304Z</time>
      </trkpt>
      <trkpt lat="51.652308" lon="8.456766">
        <ele>102.634757</ele>
        <time>2022-04-06T19:49:09.736Z</time>
      </trkpt>
      <trkpt lat="51.652228" lon="8.456835">
        <ele>102.568560</ele>
        <time>2022-04-06T19:49:10.914Z</time>
      </trkpt>
      <trkpt lat="51.648997" lon="8.459693">
        <ele>99.907949</ele>
        <time>2022-04-06T19:49:57.246Z</time>
      </trkpt>
      <trkpt lat="51.646463" lon="8.461939">
        <ele>99.139303</ele>
        <time>2022-04-06T19:50:38.101Z</time>
      </trkpt>
      <trkpt lat="51.645627" lon="8.462680">
        <ele>99.079830</ele>
        <time>2022-04-06T19:50:51.851Z</time>
      </trkpt>
      <trkpt lat="51.645435" lon="8.462849">
        <ele>99.082900</ele>
        <time>2022-04-06T19:50:54.991Z</time>
      </trkpt>
      <trkpt lat="51.642714" lon="8.465239">
        <ele>99.608826</ele>
        <time>2022-04-06T19:51:42.150Z</time>
      </trkpt>
      <trkpt lat="51.642602" lon="8.465348">
        <ele>99.719485</ele>
        <time>2022-04-06T19:51:44.593Z</time>
      </trkpt>
      <trkpt lat="51.641610" lon="8.466225">
        <ele>100.676438</ele>
        <time>2022-04-06T19:52:06.080Z</time>
      </trkpt>
      <trkpt lat="51.640981" lon="8.466684">
        <ele>101.359699</ele>
        <time>2022-04-06T19:52:19.392Z</time>
      </trkpt>
      <trkpt lat="51.640851" lon="8.466747">
        <ele>101.504269</ele>
        <time>2022-04-06T19:52:21.946Z</time>
      </trkpt>
      <trkpt lat="51.640293" lon="8.466876">
        <ele>102.104599</ele>
        <time>2022-04-06T19:52:32.926Z</time>
      </trkpt>
      <trkpt lat="51.639409" lon="8.467072">
        <ele>103.046159</ele>
        <time>2022-04-06T19:52:49.574Z</time>
      </trkpt>
      <trkpt lat="51.639404" lon="8.467228">
        <ele>103.145960</ele>
        <time>2022-04-06T19:52:51.354Z</time>
      </trkpt>
      <trkpt lat="51.639319" lon="8.467968">
        <ele>103.626774</ele>
        <time>2022-04-06T19:53:00.151Z</time>
      </trkpt>
      <trkpt lat="51.639179" lon="8.469463">
        <ele>104.592740</ele>
        <time>2022-04-06T19:53:18.561Z</time>
      </trkpt>
      <trkpt lat="51.639121" lon="8.471036">
        <ele>105.049859</ele>
        <time>2022-04-06T19:53:35.604Z</time>
      </trkpt>
      <trkpt lat="51.639144" lon="8.471579">
        <ele>105.197454</ele>
        <time>2022-04-06T19:53:40.825Z</time>
      </trkpt>
      <trkpt lat="51.639151" lon="8.471625">
        <ele>105.210298</ele>
        <time>2022-04-06T19:53:41.257Z</time>
      </trkpt>
      <trkpt lat="51.639380" lon="8.472373">
        <ele>105.432749</ele>
        <time>2022-04-06T19:53:48.903Z</time>
      </trkpt>
      <trkpt lat="51.639141" lon="8.472530">
        <ele>105.475784</ele>
        <time>2022-04-06T19:53:54.171Z</time>
      </trkpt>
      <trkpt lat="51.639110" lon="8.472548">
        <ele>105.481279</ele>
        <time>2022-04-06T19:53:54.844Z</time>
      </trkpt>
      <trkpt lat="51.638851" lon="8.472701">
        <ele>105.527276</ele>
        <time>2022-04-06T19:54:00.619Z</time>
      </trkpt>
      <trkpt lat="51.638314" lon="8.472611">
        <ele>105.617299</ele>
        <time>2022-04-06T19:54:11.906Z</time>
      </trkpt>
      <trkpt lat="51.638233" lon="8.472594">
        <ele>105.630919</ele>
        <time>2022-04-06T19:54:13.494Z</time>
      </trkpt>
      <trkpt lat="51.638074" lon="8.472525">
        <ele>105.658376</ele>
        <time>2022-04-06T19:54:16.949Z</time>
      </trkpt>
      <trkpt lat="51.637886" lon="8.472443">
        <ele>105.690851</ele>
        <time>2022-04-06T19:54:20.874Z</time>
      </trkpt>
      <trkpt lat="51.637856" lon="8.472430">
        <ele>105.696031</ele>
        <time>2022-04-06T19:54:21.520Z</time>
      </trkpt>
      <trkpt lat="51.637253" lon="8.472207">
        <ele>105.960098</ele>
        <time>2022-04-06T19:54:34.990Z</time>
      </trkpt>
      <trkpt lat="51.636989" lon="8.472189">
        <ele>106.107147</ele>
        <time>2022-04-06T19:54:41.028Z</time>
      </trkpt>
      <trkpt lat="51.636293" lon="8.472153">
        <ele>106.494672</ele>
        <time>2022-04-06T19:54:57.408Z</time>
      </trkpt>
      <trkpt lat="51.634976" lon="8.472139">
        <ele>107.024284</ele>
        <time>2022-04-06T19:55:26.003Z</time>
      </trkpt>
      <trkpt lat="51.634173" lon="8.472097">
        <ele>107.288225</ele>
        <time>2022-04-06T19:55:43.014Z</time>
      </trkpt>
      <trkpt lat="51.633745" lon="8.472115">
        <ele>107.609524</ele>
        <time>2022-04-06T19:55:52.308Z</time>
      </trkpt>
      <trkpt lat="51.632932" lon="8.472149">
        <ele>108.329099</ele>
        <time>2022-04-06T19:56:10.808Z</time>
      </trkpt>
      <trkpt lat="51.630871" lon="8.474644">
        <ele>111.800923</ele>
        <time>2022-04-06T19:57:18.405Z</time>
      </trkpt>
      <trkpt lat="51.630445" lon="8.475056">
        <ele>112.607536</ele>
        <time>2022-04-06T19:57:31.452Z</time>
      </trkpt>
      <trkpt lat="51.629741" lon="8.475982">
        <ele>114.082959</ele>
        <time>2022-04-06T19:57:55.676Z</time>
      </trkpt>
      <trkpt lat="51.628186" lon="8.477397">
        <ele>117.290433</ele>
        <time>2022-04-06T19:58:44.913Z</time>
      </trkpt>
      <trkpt lat="51.627439" lon="8.477873">
        <ele>118.569549</ele>
        <time>2022-04-06T19:59:07.060Z</time>
      </trkpt>
      <trkpt lat="51.625726" lon="8.478974">
        <ele>120.883439</ele>
        <time>2022-04-06T19:59:54.168Z</time>
      </trkpt>
      <trkpt lat="51.624393" lon="8.479285">
        <ele>121.941313</ele>
        <time>2022-04-06T20:00:24.146Z</time>
      </trkpt>
      <trkpt lat="51.624330" lon="8.479300">
        <ele>121.993709</ele>
        <time>2022-04-06T20:00:25.563Z</time>
      </trkpt>
      <trkpt lat="51.623735" lon="8.479439">
        <ele>122.488372</ele>
        <time>2022-04-06T20:00:39.390Z</time>
      </trkpt>
      <trkpt lat="51.623363" lon="8.480272">
        <ele>123.012505</ele>
        <time>2022-04-06T20:00:54.284Z</time>
      </trkpt>
      <trkpt lat="51.623310" lon="8.480405">
        <ele>123.093231</ele>
        <time>2022-04-06T20:00:56.647Z</time>
      </trkpt>
      <trkpt lat="51.622913" lon="8.481402">
        <ele>124.067585</ele>
        <time>2022-04-06T20:01:15.122Z</time>
      </trkpt>
      <trkpt lat="51.622739" lon="8.481819">
        <ele>124.581886</ele>
        <time>2022-04-06T20:01:23.700Z</time>
      </trkpt>
      <trkpt lat="51.619506" lon="8.483779">
        <ele>130.851950</ele>
        <time>2022-04-06T20:02:58.729Z</time>
      </trkpt>
      <trkpt lat="51.618917" lon="8.484561">
        <ele>132.428386</ele>
        <time>2022-04-06T20:03:20.174Z</time>
      </trkpt>
      <trkpt lat="51.618066" lon="8.487582">
        <ele>137.234561</ele>
        <time>2022-04-06T20:04:22.431Z</time>
      </trkpt>
      <trkpt lat="51.611592" lon="8.486221">
        <ele>148.775750</ele>
        <time>2022-04-06T20:07:25.171Z</time>
      </trkpt>
      <trkpt lat="51.611593" lon="8.481431">
        <ele>148.442341</ele>
        <time>2022-04-06T20:08:02.462Z</time>
      </trkpt>
      <trkpt lat="51.609954" lon="8.481509">
        <ele>150.392875</ele>
        <time>2022-04-06T20:08:36.731Z</time>
      </trkpt>
      <trkpt lat="51.609113" lon="8.481352">
        <ele>152.386393</ele>
        <time>2022-04-06T20:08:57.695Z</time>
      </trkpt>
      <trkpt lat="51.603689" lon="8.481276">
        <ele>166.297977</ele>
        <time>2022-04-06T20:11:14.563Z</time>
      </trkpt>
      <trkpt lat="51.602549" lon="8.481111">
        <ele>169.218950</ele>
        <time>2022-04-06T20:11:43.658Z</time>
      </trkpt>
      <trkpt lat="51.601821" lon="8.481006">
        <ele>171.025437</ele>
        <time>2022-04-06T20:12:01.446Z</time>
      </trkpt>
      <trkpt lat="51.601112" lon="8.480941">
        <ele>172.792191</ele>
        <time>2022-04-06T20:12:18.738Z</time>
      </trkpt>
      <trkpt lat="51.599945" lon="8.481544">
        <ele>176.072465</ele>
        <time>2022-04-06T20:12:50.513Z</time>
      </trkpt>
      <trkpt lat="51.599228" lon="8.481754">
        <ele>177.946938</ele>
        <time>2022-04-06T20:13:09.275Z</time>
      </trkpt>
      <trkpt lat="51.597440" lon="8.482105">
        <ele>182.016620</ele>
        <time>2022-04-06T20:13:52.321Z</time>
      </trkpt>
      <trkpt lat="51.596348" lon="8.482459">
        <ele>184.047345</ele>
        <time>2022-04-06T20:14:15.850Z</time>
      </trkpt>
      <trkpt lat="51.595396" lon="8.482866">
        <ele>186.141125</ele>
        <time>2022-04-06T20:14:37.844Z</time>
      </trkpt>
      <trkpt lat="51.592654" lon="8.483545">
        <ele>192.971167</ele>
        <time>2022-04-06T20:15:48.624Z</time>
      </trkpt>
      <trkpt lat="51.587200" lon="8.487132">
        <ele>204.803425</ele>
        <time>2022-04-06T20:18:02.855Z</time>
      </trkpt>
      <trkpt lat="51.587439" lon="8.488977">
        <ele>206.920374</ele>
        <time>2022-04-06T20:18:27.452Z</time>
      </trkpt>
      <trkpt lat="51.587308" lon="8.491799">
        <ele>210.882385</ele>
        <time>2022-04-06T20:19:08.949Z</time>
      </trkpt>
      <trkpt lat="51.587334" lon="8.493183">
        <ele>213.156130</ele>
        <time>2022-04-06T20:19:31.666Z</time>
      </trkpt>
      <trkpt lat="51.587334" lon="8.493183">
        <ele>213.156130</ele>
        <time>2022-04-06T20:19:31.678Z</time>
      </trkpt>
      <trkpt lat="51.587334" lon="8.493183">
        <ele>213.156130</ele>
        <time>2022-04-06T20:19:31.679Z</time>
      </trkpt>
      <trkpt lat="51.587221" lon="8.494187">
        <ele>215.024557</ele>
        <time>2022-04-06T20:19:48.627Z</time>
      </trkpt>
      <trkpt lat="51.587017" lon="8.495537">
        <ele>217.561836</ele>
        <time>2022-04-06T20:20:12.046Z</time>
      </trkpt>
      <trkpt lat="51.586740" lon="8.498417">
        <ele>222.714127</ele>
        <time>2022-04-06T20:20:59.736Z</time>
      </trkpt>
      <trkpt lat="51.586375" lon="8.501326">
        <ele>227.413451</ele>
        <time>2022-04-06T20:21:45.635Z</time>
      </trkpt>
      <trkpt lat="51.586262" lon="8.502949">
        <ele>229.695595</ele>
        <time>2022-04-06T20:22:10.050Z</time>
      </trkpt>
      <trkpt lat="51.585859" lon="8.504827">
        <ele>232.214232</ele>
        <time>2022-04-06T20:22:38.562Z</time>
      </trkpt>
      <trkpt lat="51.585564" lon="8.506199">
        <ele>233.846758</ele>
        <time>2022-04-06T20:22:58.489Z</time>
      </trkpt>
      <trkpt lat="51.585374" lon="8.507103">
        <ele>234.569798</ele>
        <time>2022-04-06T20:23:10.828Z</time>
      </trkpt>
      <trkpt lat="51.585349" lon="8.507495">
        <ele>234.710256</ele>
        <time>2022-04-06T20:23:15.681Z</time>
      </trkpt>
      <trkpt lat="51.585325" lon="8.507931">
        <ele>234.866272</ele>
        <time>2022-04-06T20:23:20.755Z</time>
      </trkpt>
      <trkpt lat="51.585241" lon="8.509732">
        <ele>235.232104</ele>
        <time>2022-04-06T20:23:38.400Z</time>
      </trkpt>
      <trkpt lat="51.585157" lon="8.511401">
        <ele>233.489027</ele>
        <time>2022-04-06T20:23:50.711Z</time>
      </trkpt>
      <trkpt lat="51.585060" lon="8.513404">
        <ele>230.386286</ele>
        <time>2022-04-06T20:24:03.482Z</time>
      </trkpt>
      <trkpt lat="51.585050" lon="8.513598">
        <ele>229.984314</ele>
        <time>2022-04-06T20:24:04.695Z</time>
      </trkpt>
      <trkpt lat="51.585022" lon="8.513917">
        <ele>229.319063</ele>
        <time>2022-04-06T20:24:06.668Z</time>
      </trkpt>
      <trkpt lat="51.584924" lon="8.514248">
        <ele>228.561945</ele>
        <time>2022-04-06T20:24:08.929Z</time>
      </trkpt>
      <trkpt lat="51.584713" lon="8.514652">
        <ele>227.472155</ele>
        <time>2022-04-06T20:24:12.130Z</time>
      </trkpt>
      <trkpt lat="51.584270" lon="8.515291">
        <ele>226.078905</ele>
        <time>2022-04-06T20:24:18.120Z</time>
      </trkpt>
      <trkpt lat="51.583634" lon="8.516043">
        <ele>225.062268</ele>
        <time>2022-04-06T20:24:26.676Z</time>
      </trkpt>
      <trkpt lat="51.583624" lon="8.516193">
        <ele>224.941513</ele>
        <time>2022-04-06T20:24:27.681Z</time>
      </trkpt>
      <trkpt lat="51.581932" lon="8.516438">
        <ele>226.572746</ele>
        <time>2022-04-06T20:25:00.078Z</time>
      </trkpt>
      <trkpt lat="51.581584" lon="8.516499">
        <ele>227.371468</ele>
        <time>2022-04-06T20:25:10.435Z</time>
      </trkpt>
      <trkpt lat="51.581471" lon="8.516557">
        <ele>227.642094</ele>
        <time>2022-04-06T20:25:14.386Z</time>
      </trkpt>
      <trkpt lat="51.581019" lon="8.517097">
        <ele>229.631798</ele>
        <time>2022-04-06T20:25:32.272Z</time>
      </trkpt>
      <trkpt lat="51.580511" lon="8.517774">
        <ele>232.672298</ele>
        <time>2022-04-06T20:25:54.347Z</time>
      </trkpt>
      <trkpt lat="51.580190" lon="8.518203">
        <ele>234.595779</ele>
        <time>2022-04-06T20:26:08.871Z</time>
      </trkpt>
      <trkpt lat="51.580039" lon="8.518577">
        <ele>235.873399</ele>
        <time>2022-04-06T20:26:18.458Z</time>
      </trkpt>
      <trkpt lat="51.579711" lon="8.519734">
        <ele>239.204801</ele>
        <time>2022-04-06T20:26:44.235Z</time>
      </trkpt>
      <trkpt lat="51.579529" lon="8.520392">
        <ele>241.053010</ele>
        <time>2022-04-06T20:26:58.604Z</time>
      </trkpt>
      <trkpt lat="51.579253" lon="8.520731">
        <ele>242.486783</ele>
        <time>2022-04-06T20:27:09.321Z</time>
      </trkpt>
      <trkpt lat="51.578777" lon="8.521255">
        <ele>244.553246</ele>
        <time>2022-04-06T20:27:25.848Z</time>
      </trkpt>
      <trkpt lat="51.578626" lon="8.521719">
        <ele>245.434205</ele>
        <time>2022-04-06T20:27:34.918Z</time>
      </trkpt>
      <trkpt lat="51.578395" lon="8.522724">
        <ele>247.236491</ele>
        <time>2022-04-06T20:27:52.406Z</time>
      </trkpt>
      <trkpt lat="51.578484" lon="8.523703">
        <ele>248.826875</ele>
        <time>2022-04-06T20:28:07.513Z</time>
      </trkpt>
      <trkpt lat="51.578490" lon="8.523753">
        <ele>248.832147</ele>
        <time>2022-04-06T20:28:08.242Z</time>
      </trkpt>
      <trkpt lat="51.578490" lon="8.523753">
        <ele>248.832147</ele>
        <time>2022-04-06T20:28:08.248Z</time>
      </trkpt>
      <trkpt lat="51.578490" lon="8.523753">
        <ele>248.832147</ele>
        <time>2022-04-06T20:28:08.307Z</time>
      </trkpt>
      <trkpt lat="51.578527" lon="8.525621">
        <ele>249.025645</ele>
        <time>2022-04-06T20:28:28.250Z</time>
      </trkpt>
      <trkpt lat="51.578643" lon="8.525611">
        <ele>249.044999</ele>
        <time>2022-04-06T20:28:30.229Z</time>
      </trkpt>
      <trkpt lat="51.579427" lon="8.526193">
        <ele>248.301052</ele>
        <time>2022-04-06T20:28:44.699Z</time>
      </trkpt>
      <trkpt lat="51.580991" lon="8.527356">
        <ele>245.011621</ele>
        <time>2022-04-06T20:29:11.065Z</time>
      </trkpt>
      <trkpt lat="51.581251" lon="8.527608">
        <ele>244.596192</ele>
        <time>2022-04-06T20:29:15.927Z</time>
      </trkpt>
      <trkpt lat="51.582905" lon="8.530003">
        <ele>242.107888</ele>
        <time>2022-04-06T20:29:54.974Z</time>
      </trkpt>
      <trkpt lat="51.583332" lon="8.530642">
        <ele>241.617065</ele>
        <time>2022-04-06T20:30:05.326Z</time>
      </trkpt>
      <trkpt lat="51.583685" lon="8.531174">
        <ele>241.391001</ele>
        <time>2022-04-06T20:30:14.033Z</time>
      </trkpt>
      <trkpt lat="51.583993" lon="8.531695">
        <ele>241.263577</ele>
        <time>2022-04-06T20:30:22.212Z</time>
      </trkpt>
      <trkpt lat="51.584204" lon="8.532580">
        <ele>241.095614</ele>
        <time>2022-04-06T20:30:33.327Z</time>
      </trkpt>
      <trkpt lat="51.585320" lon="8.536871">
        <ele>242.265104</ele>
        <time>2022-04-06T20:31:37.364Z</time>
      </trkpt>
      <trkpt lat="51.586050" lon="8.539982">
        <ele>243.761660</ele>
        <time>2022-04-06T20:32:26.284Z</time>
      </trkpt>
      <trkpt lat="51.587051" lon="8.543953">
        <ele>245.387470</ele>
        <time>2022-04-06T20:33:25.942Z</time>
      </trkpt>
      <trkpt lat="51.588372" lon="8.549235">
        <ele>247.030862</ele>
        <time>2022-04-06T20:34:44.876Z</time>
      </trkpt>
      <trkpt lat="51.589990" lon="8.555661">
        <ele>246.568888</ele>
        <time>2022-04-06T20:36:09.069Z</time>
      </trkpt>
      <trkpt lat="51.590905" lon="8.559414">
        <ele>246.440135</ele>
        <time>2022-04-06T20:36:59.871Z</time>
      </trkpt>
      <trkpt lat="51.591361" lon="8.561348">
        <ele>245.894062</ele>
        <time>2022-04-06T20:37:25.162Z</time>
      </trkpt>
      <trkpt lat="51.592862" lon="8.567938">
        <ele>242.715225</ele>
        <time>2022-04-06T20:38:42.895Z</time>
      </trkpt>
      <trkpt lat="51.592838" lon="8.568163">
        <ele>242.588201</ele>
        <time>2022-04-06T20:38:45.290Z</time>
      </trkpt>
      <trkpt lat="51.593033" lon="8.568359">
        <ele>242.307891</ele>
        <time>2022-04-06T20:38:49.096Z</time>
      </trkpt>
      <trkpt lat="51.593628" lon="8.570959">
        <ele>240.066540</ele>
        <time>2022-04-06T20:39:17.601Z</time>
      </trkpt>
      <trkpt lat="51.593800" lon="8.571216">
        <ele>239.926991</ele>
        <time>2022-04-06T20:39:21.571Z</time>
      </trkpt>
      <trkpt lat="51.593750" lon="8.571591">
        <ele>239.785308</ele>
        <time>2022-04-06T20:39:25.671Z</time>
      </trkpt>
      <trkpt lat="51.594496" lon="8.574786">
        <ele>239.540180</ele>
        <time>2022-04-06T20:40:06.445Z</time>
      </trkpt>
      <trkpt lat="51.593237" lon="8.576605">
        <ele>241.479394</ele>
        <time>2022-04-06T20:40:40.826Z</time>
      </trkpt>
      <trkpt lat="51.592504" lon="8.577668">
        <ele>243.297578</ele>
        <time>2022-04-06T20:41:04.175Z</time>
      </trkpt>
      <trkpt lat="51.591952" lon="8.578447">
        <ele>244.627057</ele>
        <time>2022-04-06T20:41:21.387Z</time>
      </trkpt>
      <trkpt lat="51.591710" lon="8.578791">
        <ele>245.211248</ele>
        <time>2022-04-06T20:41:28.800Z</time>
      </trkpt>
      <trkpt lat="51.591233" lon="8.579478">
        <ele>246.369420</ele>
        <time>2022-04-06T20:41:42.497Z</time>
      </trkpt>
      <trkpt lat="51.590970" lon="8.579849">
        <ele>246.488484</ele>
        <time>2022-04-06T20:41:49.591Z</time>
      </trkpt>
      <trkpt lat="51.590828" lon="8.580048">
        <ele>246.376391</ele>
        <time>2022-04-06T20:41:53.430Z</time>
      </trkpt>
      <trkpt lat="51.590850" lon="8.580100">
        <ele>246.353121</ele>
        <time>2022-04-06T20:41:54.097Z</time>
      </trkpt>
      <trkpt lat="51.589712" lon="8.581466">
        <ele>245.168395</ele>
        <time>2022-04-06T20:42:20.106Z</time>
      </trkpt>
      <trkpt lat="51.588808" lon="8.582566">
        <ele>238.281879</ele>
        <time>2022-04-06T20:42:35.087Z</time>
      </trkpt>
      <trkpt lat="51.588214" lon="8.583208">
        <ele>233.619499</ele>
        <time>2022-04-06T20:42:44.027Z</time>
      </trkpt>
      <trkpt lat="51.587867" lon="8.583422">
        <ele>230.318560</ele>
        <time>2022-04-06T20:42:48.555Z</time>
      </trkpt>
      <trkpt lat="51.587394" lon="8.583205">
        <ele>225.949537</ele>
        <time>2022-04-06T20:42:54.543Z</time>
      </trkpt>
      <trkpt lat="51.586922" lon="8.582820">
        <ele>221.249046</ele>
        <time>2022-04-06T20:43:01.124Z</time>
      </trkpt>
      <trkpt lat="51.586739" lon="8.582790">
        <ele>219.615044</ele>
        <time>2022-04-06T20:43:03.374Z</time>
      </trkpt>
      <trkpt lat="51.586808" lon="8.583084">
        <ele>218.146623</ele>
        <time>2022-04-06T20:43:05.892Z</time>
      </trkpt>
      <trkpt lat="51.587599" lon="8.584145">
        <ele>212.215064</ele>
        <time>2022-04-06T20:43:19.427Z</time>
      </trkpt>
      <trkpt lat="51.587843" lon="8.584657">
        <ele>209.905581</ele>
        <time>2022-04-06T20:43:24.732Z</time>
      </trkpt>
      <trkpt lat="51.587970" lon="8.585069">
        <ele>208.264968</ele>
        <time>2022-04-06T20:43:28.829Z</time>
      </trkpt>
      <trkpt lat="51.588039" lon="8.585716">
        <ele>206.674177</ele>
        <time>2022-04-06T20:43:34.674Z</time>
      </trkpt>
      <trkpt lat="51.588043" lon="8.585818">
        <ele>206.426511</ele>
        <time>2022-04-06T20:43:35.570Z</time>
      </trkpt>
      <trkpt lat="51.588013" lon="8.585996">
        <ele>205.979578</ele>
        <time>2022-04-06T20:43:36.685Z</time>
      </trkpt>
      <trkpt lat="51.588072" lon="8.587854">
        <ele>201.471250</ele>
        <time>2022-04-06T20:43:48.081Z</time>
      </trkpt>
      <trkpt lat="51.588060" lon="8.588269">
        <ele>200.447467</ele>
        <time>2022-04-06T20:43:50.588Z</time>
      </trkpt>
      <trkpt lat="51.587950" lon="8.588496">
        <ele>199.734944</ele>
        <time>2022-04-06T20:43:52.366Z</time>
      </trkpt>
      <trkpt lat="51.587893" lon="8.588482">
        <ele>199.505247</ele>
        <time>2022-04-06T20:43:52.933Z</time>
      </trkpt>
      <trkpt lat="51.587566" lon="8.587258">
        <ele>196.207531</ele>
        <time>2022-04-06T20:44:00.928Z</time>
      </trkpt>
      <trkpt lat="51.587364" lon="8.586802">
        <ele>194.821386</ele>
        <time>2022-04-06T20:44:04.274Z</time>
      </trkpt>
      <trkpt lat="51.587072" lon="8.586583">
        <ele>193.851333</ele>
        <time>2022-04-06T20:44:07.459Z</time>
      </trkpt>
      <trkpt lat="51.586804" lon="8.586495">
        <ele>193.373384</ele>
        <time>2022-04-06T20:44:10.241Z</time>
      </trkpt>
      <trkpt lat="51.586478" lon="8.586483">
        <ele>192.803582</ele>
        <time>2022-04-06T20:44:13.688Z</time>
      </trkpt>
      <trkpt lat="51.586213" lon="8.586574">
        <ele>192.330099</ele>
        <time>2022-04-06T20:44:16.707Z</time>
      </trkpt>
      <trkpt lat="51.586182" lon="8.586596">
        <ele>192.270897</ele>
        <time>2022-04-06T20:44:17.113Z</time>
      </trkpt>
      <trkpt lat="51.585657" lon="8.587068">
        <ele>191.220081</ele>
        <time>2022-04-06T20:44:24.630Z</time>
      </trkpt>
      <trkpt lat="51.585581" lon="8.587145">
        <ele>191.063155</ele>
        <time>2022-04-06T20:44:25.862Z</time>
      </trkpt>
      <trkpt lat="51.585204" lon="8.587497">
        <ele>191.692360</ele>
        <time>2022-04-06T20:44:33.292Z</time>
      </trkpt>
      <trkpt lat="51.584898" lon="8.587818">
        <ele>192.416393</ele>
        <time>2022-04-06T20:44:41.011Z</time>
      </trkpt>
      <trkpt lat="51.584550" lon="8.588118">
        <ele>193.198933</ele>
        <time>2022-04-06T20:44:50.676Z</time>
      </trkpt>
      <trkpt lat="51.584047" lon="8.588526">
        <ele>194.315467</ele>
        <time>2022-04-06T20:45:05.587Z</time>
      </trkpt>
      <trkpt lat="51.583938" lon="8.588608">
        <ele>194.599480</ele>
        <time>2022-04-06T20:45:08.939Z</time>
      </trkpt>
      <trkpt lat="51.583928" lon="8.588618">
        <ele>194.652739</ele>
        <time>2022-04-06T20:45:09.260Z</time>
      </trkpt>
      <trkpt lat="51.583658" lon="8.588829">
        <ele>196.010530</ele>
        <time>2022-04-06T20:45:17.931Z</time>
      </trkpt>
      <trkpt lat="51.583502" lon="8.588950">
        <ele>196.793917</ele>
        <time>2022-04-06T20:45:23.088Z</time>
      </trkpt>
      <trkpt lat="51.582816" lon="8.589505">
        <ele>200.267260</ele>
        <time>2022-04-06T20:45:48.620Z</time>
      </trkpt>
      <trkpt lat="51.582829" lon="8.590556">
        <ele>203.204078</ele>
        <time>2022-04-06T20:46:13.150Z</time>
      </trkpt>
      <trkpt lat="51.582735" lon="8.591022">
        <ele>204.537358</ele>
        <time>2022-04-06T20:46:24.383Z</time>
      </trkpt>
      <trkpt lat="51.582696" lon="8.591669">
        <ele>206.306318</ele>
        <time>2022-04-06T20:46:38.778Z</time>
      </trkpt>
      <trkpt lat="51.582807" lon="8.592309">
        <ele>208.114532</ele>
        <time>2022-04-06T20:46:52.455Z</time>
      </trkpt>
      <trkpt lat="51.583210" lon="8.593129">
        <ele>210.562507</ele>
        <time>2022-04-06T20:47:10.959Z</time>
      </trkpt>
      <trkpt lat="51.583471" lon="8.593582">
        <ele>210.682081</ele>
        <time>2022-04-06T20:47:19.834Z</time>
      </trkpt>
      <trkpt lat="51.583728" lon="8.594041">
        <ele>210.801672</ele>
        <time>2022-04-06T20:47:26.738Z</time>
      </trkpt>
      <trkpt lat="51.584299" lon="8.594754">
        <ele>211.026799</ele>
        <time>2022-04-06T20:47:35.183Z</time>
      </trkpt>
      <trkpt lat="51.584873" lon="8.595504">
        <ele>210.770965</ele>
        <time>2022-04-06T20:47:43.787Z</time>
      </trkpt>
      <trkpt lat="51.585229" lon="8.595789">
        <ele>210.529305</ele>
        <time>2022-04-06T20:47:48.909Z</time>
      </trkpt>
      <trkpt lat="51.585418" lon="8.595963">
        <ele>210.396968</ele>
        <time>2022-04-06T20:47:51.775Z</time>
      </trkpt>
      <trkpt lat="51.585643" lon="8.596215">
        <ele>210.230364</ele>
        <time>2022-04-06T20:47:55.408Z</time>
      </trkpt>
      <trkpt lat="51.585994" lon="8.596980">
        <ele>210.094364</ele>
        <time>2022-04-06T20:48:04.361Z</time>
      </trkpt>
      <trkpt lat="51.586115" lon="8.597301">
        <ele>210.199809</ele>
        <time>2022-04-06T20:48:08.221Z</time>
      </trkpt>
      <trkpt lat="51.586772" lon="8.598915">
        <ele>210.741711</ele>
        <time>2022-04-06T20:48:31.456Z</time>
      </trkpt>
      <trkpt lat="51.587512" lon="8.600542">
        <ele>209.176463</ele>
        <time>2022-04-06T20:48:46.682Z</time>
      </trkpt>
      <trkpt lat="51.587806" lon="8.601100">
        <ele>208.498569</ele>
        <time>2022-04-06T20:48:51.570Z</time>
      </trkpt>
      <trkpt lat="51.588327" lon="8.601914">
        <ele>206.562211</ele>
        <time>2022-04-06T20:48:59.014Z</time>
      </trkpt>
      <trkpt lat="51.588428" lon="8.602066">
        <ele>206.109555</ele>
        <time>2022-04-06T20:49:00.409Z</time>
      </trkpt>
      <trkpt lat="51.589326" lon="8.603349">
        <ele>202.203977</ele>
        <time>2022-04-06T20:49:12.330Z</time>
      </trkpt>
      <trkpt lat="51.589891" lon="8.604173">
        <ele>200.706893</ele>
        <time>2022-04-06T20:49:20.206Z</time>
      </trkpt>
      <trkpt lat="51.590099" lon="8.604636">
        <ele>200.009875</ele>
        <time>2022-04-06T20:49:24.096Z</time>
      </trkpt>
      <trkpt lat="51.590323" lon="8.605340">
        <ele>199.044976</ele>
        <time>2022-04-06T20:49:29.943Z</time>
      </trkpt>
      <trkpt lat="51.590513" lon="8.606158">
        <ele>199.142498</ele>
        <time>2022-04-06T20:49:37.436Z</time>
      </trkpt>
      <trkpt lat="51.590579" lon="8.606439">
        <ele>199.359437</ele>
        <time>2022-04-06T20:49:40.372Z</time>
      </trkpt>
      <trkpt lat="51.591438" lon="8.611663">
        <ele>205.252120</ele>
        <time>2022-04-06T20:50:56.104Z</time>
      </trkpt>
      <trkpt lat="51.591493" lon="8.611931">
        <ele>205.704789</ele>
        <time>2022-04-06T20:51:01.599Z</time>
      </trkpt>
      <trkpt lat="51.592093" lon="8.614044">
        <ele>208.741256</ele>
        <time>2022-04-06T20:51:40.150Z</time>
      </trkpt>
      <trkpt lat="51.592344" lon="8.614756">
        <ele>207.525248</ele>
        <time>2022-04-06T20:51:49.769Z</time>
      </trkpt>
      <trkpt lat="51.593192" lon="8.616310">
        <ele>203.730192</ele>
        <time>2022-04-06T20:52:02.178Z</time>
      </trkpt>
      <trkpt lat="51.593255" lon="8.616422">
        <ele>202.997945</ele>
        <time>2022-04-06T20:52:03.006Z</time>
      </trkpt>
      <trkpt lat="51.593355" lon="8.616574">
        <ele>201.924978</ele>
        <time>2022-04-06T20:52:04.213Z</time>
      </trkpt>
      <trkpt lat="51.593527" lon="8.616862">
        <ele>199.988838</ele>
        <time>2022-04-06T20:52:06.385Z</time>
      </trkpt>
      <trkpt lat="51.593844" lon="8.617328">
        <ele>196.639784</ele>
        <time>2022-04-06T20:52:10.122Z</time>
      </trkpt>
      <trkpt lat="51.593935" lon="8.617461">
        <ele>195.680908</ele>
        <time>2022-04-06T20:52:11.196Z</time>
      </trkpt>
      <trkpt lat="51.594583" lon="8.618447">
        <ele>189.611113</ele>
        <time>2022-04-06T20:52:19.008Z</time>
      </trkpt>
      <trkpt lat="51.594763" lon="8.618762">
        <ele>188.448922</ele>
        <time>2022-04-06T20:52:21.434Z</time>
      </trkpt>
      <trkpt lat="51.595009" lon="8.619151">
        <ele>186.941604</ele>
        <time>2022-04-06T20:52:24.679Z</time>
      </trkpt>
      <trkpt lat="51.595308" lon="8.619661">
        <ele>185.037410</ele>
        <time>2022-04-06T20:52:29.040Z</time>
      </trkpt>
      <trkpt lat="51.595426" lon="8.620000">
        <ele>183.982239</ele>
        <time>2022-04-06T20:52:31.687Z</time>
      </trkpt>
      <trkpt lat="51.595522" lon="8.620438">
        <ele>182.861453</ele>
        <time>2022-04-06T20:52:35.191Z</time>
      </trkpt>
      <trkpt lat="51.595549" lon="8.621365">
        <ele>182.586465</ele>
        <time>2022-04-06T20:52:43.172Z</time>
      </trkpt>
      <trkpt lat="51.595633" lon="8.621871">
        <ele>182.431267</ele>
        <time>2022-04-06T20:52:48.053Z</time>
      </trkpt>
      <trkpt lat="51.595863" lon="8.622412">
        <ele>182.237013</ele>
        <time>2022-04-06T20:52:53.925Z</time>
      </trkpt>
      <trkpt lat="51.596114" lon="8.622672">
        <ele>182.094640</ele>
        <time>2022-04-06T20:52:57.838Z</time>
      </trkpt>
      <trkpt lat="51.596988" lon="8.623345">
        <ele>181.835452</ele>
        <time>2022-04-06T20:53:10.519Z</time>
      </trkpt>
      <trkpt lat="51.597519" lon="8.623489">
        <ele>181.712882</ele>
        <time>2022-04-06T20:53:18.096Z</time>
      </trkpt>
      <trkpt lat="51.598078" lon="8.623463">
        <ele>181.648700</ele>
        <time>2022-04-06T20:53:26.746Z</time>
      </trkpt>
      <trkpt lat="51.598471" lon="8.623441">
        <ele>181.779021</ele>
        <time>2022-04-06T20:53:33.040Z</time>
      </trkpt>
      <trkpt lat="51.598594" lon="8.623433">
        <ele>181.819818</ele>
        <time>2022-04-06T20:53:34.989Z</time>
      </trkpt>
      <trkpt lat="51.598830" lon="8.623428">
        <ele>181.898037</ele>
        <time>2022-04-06T20:53:38.806Z</time>
      </trkpt>
      <trkpt lat="51.599190" lon="8.623412">
        <ele>182.017388</ele>
        <time>2022-04-06T20:53:44.866Z</time>
      </trkpt>
      <trkpt lat="51.599522" lon="8.623412">
        <ele>182.127416</ele>
        <time>2022-04-06T20:53:50.487Z</time>
      </trkpt>
      <trkpt lat="51.599603" lon="8.623415">
        <ele>182.154267</ele>
        <time>2022-04-06T20:53:51.894Z</time>
      </trkpt>
      <trkpt lat="51.600310" lon="8.623439">
        <ele>182.153739</ele>
        <time>2022-04-06T20:54:03.195Z</time>
      </trkpt>
      <trkpt lat="51.600730" lon="8.623394">
        <ele>182.112464</ele>
        <time>2022-04-06T20:54:09.383Z</time>
      </trkpt>
      <trkpt lat="51.600915" lon="8.623431">
        <ele>182.094184</ele>
        <time>2022-04-06T20:54:11.960Z</time>
      </trkpt>
      <trkpt lat="51.601068" lon="8.623495">
        <ele>182.078683</ele>
        <time>2022-04-06T20:54:14.140Z</time>
      </trkpt>
      <trkpt lat="51.601135" lon="8.623534">
        <ele>182.071697</ele>
        <time>2022-04-06T20:54:15.079Z</time>
      </trkpt>
      <trkpt lat="51.601267" lon="8.623640">
        <ele>182.057233</ele>
        <time>2022-04-06T20:54:17.005Z</time>
      </trkpt>
      <trkpt lat="51.601311" lon="8.623681">
        <ele>182.052248</ele>
        <time>2022-04-06T20:54:17.682Z</time>
      </trkpt>
      <trkpt lat="51.601595" lon="8.623881">
        <ele>181.993322</ele>
        <time>2022-04-06T20:54:21.747Z</time>
      </trkpt>
      <trkpt lat="51.602440" lon="8.624299">
        <ele>181.636294</ele>
        <time>2022-04-06T20:54:33.276Z</time>
      </trkpt>
      <trkpt lat="51.602892" lon="8.624771">
        <ele>181.418702</ele>
        <time>2022-04-06T20:54:40.809Z</time>
      </trkpt>
      <trkpt lat="51.602974" lon="8.625119">
        <ele>181.325333</ele>
        <time>2022-04-06T20:54:45.217Z</time>
      </trkpt>
      <trkpt lat="51.603262" lon="8.626050">
        <ele>181.215869</ele>
        <time>2022-04-06T20:54:58.004Z</time>
      </trkpt>
      <trkpt lat="51.603297" lon="8.626458">
        <ele>181.177710</ele>
        <time>2022-04-06T20:55:03.083Z</time>
      </trkpt>
      <trkpt lat="51.603182" lon="8.627363">
        <ele>181.092129</ele>
        <time>2022-04-06T20:55:14.396Z</time>
      </trkpt>
      <trkpt lat="51.602903" lon="8.628794">
        <ele>180.577363</ele>
        <time>2022-04-06T20:55:33.043Z</time>
      </trkpt>
      <trkpt lat="51.602365" lon="8.629979">
        <ele>179.826294</ele>
        <time>2022-04-06T20:55:48.778Z</time>
      </trkpt>
      <trkpt lat="51.602042" lon="8.630912">
        <ele>179.114664</ele>
        <time>2022-04-06T20:55:59.674Z</time>
      </trkpt>
      <trkpt lat="51.601839" lon="8.631806">
        <ele>178.334971</ele>
        <time>2022-04-06T20:56:09.429Z</time>
      </trkpt>
      <trkpt lat="51.602068" lon="8.632860">
        <ele>177.420325</ele>
        <time>2022-04-06T20:56:21.002Z</time>
      </trkpt>
      <trkpt lat="51.602102" lon="8.633099">
        <ele>177.219487</ele>
        <time>2022-04-06T20:56:23.658Z</time>
      </trkpt>
      <trkpt lat="51.602194" lon="8.633791">
        <ele>176.965613</ele>
        <time>2022-04-06T20:56:31.321Z</time>
      </trkpt>
      <trkpt lat="51.602401" lon="8.634284">
        <ele>176.770811</ele>
        <time>2022-04-06T20:56:38.153Z</time>
      </trkpt>
      <trkpt lat="51.602658" lon="8.634472">
        <ele>176.622036</ele>
        <time>2022-04-06T20:56:43.612Z</time>
      </trkpt>
      <trkpt lat="51.606878" lon="8.636577">
        <ele>175.508765</ele>
        <time>2022-04-06T20:58:09.304Z</time>
      </trkpt>
      <trkpt lat="51.607087" lon="8.636881">
        <ele>175.582996</ele>
        <time>2022-04-06T20:58:14.869Z</time>
      </trkpt>
      <trkpt lat="51.607478" lon="8.637663">
        <ele>175.747323</ele>
        <time>2022-04-06T20:58:28.044Z</time>
      </trkpt>
      <trkpt lat="51.607649" lon="8.638157">
        <ele>175.839893</ele>
        <time>2022-04-06T20:58:35.865Z</time>
      </trkpt>
      <trkpt lat="51.608359" lon="8.639905">
        <ele>176.187536</ele>
        <time>2022-04-06T20:59:04.836Z</time>
      </trkpt>
      <trkpt lat="51.608477" lon="8.640529">
        <ele>176.297084</ele>
        <time>2022-04-06T20:59:13.589Z</time>
      </trkpt>
      <trkpt lat="51.608465" lon="8.640964">
        <ele>176.370212</ele>
        <time>2022-04-06T20:59:19.251Z</time>
      </trkpt>
      <trkpt lat="51.608288" lon="8.641881">
        <ele>176.129719</ele>
        <time>2022-04-06T20:59:30.883Z</time>
      </trkpt>
      <trkpt lat="51.608057" lon="8.642501">
        <ele>175.675591</ele>
        <time>2022-04-06T20:59:38.800Z</time>
      </trkpt>
      <trkpt lat="51.607276" lon="8.644132">
        <ele>174.430136</ele>
        <time>2022-04-06T20:59:59.969Z</time>
      </trkpt>
      <trkpt lat="51.607123" lon="8.644413">
        <ele>174.241420</ele>
        <time>2022-04-06T21:00:03.750Z</time>
      </trkpt>
      <trkpt lat="51.606701" lon="8.645188">
        <ele>173.720925</ele>
        <time>2022-04-06T21:00:14.579Z</time>
      </trkpt>
      <trkpt lat="51.606484" lon="8.645732">
        <ele>173.394422</ele>
        <time>2022-04-06T21:00:21.511Z</time>
      </trkpt>
      <trkpt lat="51.606364" lon="8.646173">
        <ele>173.244007</ele>
        <time>2022-04-06T21:00:27.211Z</time>
      </trkpt>
      <trkpt lat="51.606390" lon="8.646850">
        <ele>175.200980</ele>
        <time>2022-04-06T21:00:37.410Z</time>
      </trkpt>
      <trkpt lat="51.606465" lon="8.647080">
        <ele>175.950469</ele>
        <time>2022-04-06T21:00:42.553Z</time>
      </trkpt>
      <trkpt lat="51.606380" lon="8.647621">
        <ele>177.560503</ele>
        <time>2022-04-06T21:00:56.384Z</time>
      </trkpt>
      <trkpt lat="51.606248" lon="8.647881">
        <ele>178.529384</ele>
        <time>2022-04-06T21:01:06.723Z</time>
      </trkpt>
      <trkpt lat="51.606191" lon="8.647980">
        <ele>178.918871</ele>
        <time>2022-04-06T21:01:10.104Z</time>
      </trkpt>
      <trkpt lat="51.606141" lon="8.648243">
        <ele>179.712422</ele>
        <time>2022-04-06T21:01:17.446Z</time>
      </trkpt>
      <trkpt lat="51.606201" lon="8.649067">
        <ele>181.962969</ele>
        <time>2022-04-06T21:01:38.570Z</time>
      </trkpt>
      <trkpt lat="51.606227" lon="8.649282">
        <ele>182.440431</ele>
        <time>2022-04-06T21:01:43.619Z</time>
      </trkpt>
      <trkpt lat="51.606227" lon="8.649359">
        <ele>182.608276</ele>
        <time>2022-04-06T21:01:45.487Z</time>
      </trkpt>
      <trkpt lat="51.606227" lon="8.649436">
        <ele>182.776122</ele>
        <time>2022-04-06T21:01:47.401Z</time>
      </trkpt>
      <trkpt lat="51.606130" lon="8.650058">
        <ele>184.174057</ele>
        <time>2022-04-06T21:02:01.844Z</time>
      </trkpt>
      <trkpt lat="51.606493" lon="8.650094">
        <ele>185.450533</ele>
        <time>2022-04-06T21:02:12.791Z</time>
      </trkpt>
      <trkpt lat="51.607469" lon="8.650019">
        <ele>186.970683</ele>
        <time>2022-04-06T21:02:33.575Z</time>
      </trkpt>
      <trkpt lat="51.607971" lon="8.649703">
        <ele>185.410611</ele>
        <time>2022-04-06T21:02:38.688Z</time>
      </trkpt>
      <trkpt lat="51.608226" lon="8.649461">
        <ele>184.553888</ele>
        <time>2022-04-06T21:02:41.553Z</time>
      </trkpt>
      <trkpt lat="51.608848" lon="8.648540">
        <ele>182.011088</ele>
        <time>2022-04-06T21:02:49.815Z</time>
      </trkpt>
      <trkpt lat="51.609396" lon="8.647431">
        <ele>178.987894</ele>
        <time>2022-04-06T21:03:02.565Z</time>
      </trkpt>
      <trkpt lat="51.609578" lon="8.647006">
        <ele>177.886654</ele>
        <time>2022-04-06T21:03:07.173Z</time>
      </trkpt>
      <trkpt lat="51.609831" lon="8.645962">
        <ele>176.152304</ele>
        <time>2022-04-06T21:03:17.225Z</time>
      </trkpt>
      <trkpt lat="51.609965" lon="8.645274">
        <ele>175.672964</ele>
        <time>2022-04-06T21:03:23.951Z</time>
      </trkpt>
      <trkpt lat="51.610182" lon="8.644602">
        <ele>175.169443</ele>
        <time>2022-04-06T21:03:31.932Z</time>
      </trkpt>
      <trkpt lat="51.610379" lon="8.644291">
        <ele>174.874118</ele>
        <time>2022-04-06T21:03:37.327Z</time>
      </trkpt>
      <trkpt lat="51.610665" lon="8.643954">
        <ele>174.599521</ele>
        <time>2022-04-06T21:03:44.235Z</time>
      </trkpt>
      <trkpt lat="51.611578" lon="8.643673">
        <ele>177.171627</ele>
        <time>2022-04-06T21:04:09.730Z</time>
      </trkpt>
      <trkpt lat="51.612192" lon="8.643363">
        <ele>178.952184</ele>
        <time>2022-04-06T21:04:28.919Z</time>
      </trkpt>
      <trkpt lat="51.612596" lon="8.643286">
        <ele>179.764324</ele>
        <time>2022-04-06T21:04:38.785Z</time>
      </trkpt>
      <trkpt lat="51.612880" lon="8.643409">
        <ele>180.135754</ele>
        <time>2022-04-06T21:04:45.276Z</time>
      </trkpt>
      <trkpt lat="51.613386" lon="8.643715">
        <ele>180.818393</ele>
        <time>2022-04-06T21:04:57.642Z</time>
      </trkpt>
      <trkpt lat="51.613737" lon="8.644011">
        <ele>181.318800</ele>
        <time>2022-04-06T21:05:05.367Z</time>
      </trkpt>
      <trkpt lat="51.613925" lon="8.644332">
        <ele>181.664853</ele>
        <time>2022-04-06T21:05:11.569Z</time>
      </trkpt>
      <trkpt lat="51.614033" lon="8.644514">
        <ele>182.010492</ele>
        <time>2022-04-06T21:05:15.594Z</time>
      </trkpt>
      <trkpt lat="51.614232" lon="8.645202">
        <ele>183.590083</ele>
        <time>2022-04-06T21:05:28.920Z</time>
      </trkpt>
      <trkpt lat="51.614327" lon="8.645793">
        <ele>184.860616</ele>
        <time>2022-04-06T21:05:41.306Z</time>
      </trkpt>
      <trkpt lat="51.614060" lon="8.645884">
        <ele>185.775322</ele>
        <time>2022-04-06T21:05:49.914Z</time>
      </trkpt>
      <trkpt lat="51.613878" lon="8.646200">
        <ele>186.672326</ele>
        <time>2022-04-06T21:05:58.763Z</time>
      </trkpt>
      <trkpt lat="51.613829" lon="8.646838">
        <ele>188.068598</ele>
        <time>2022-04-06T21:06:12.645Z</time>
      </trkpt>
      <trkpt lat="51.613830" lon="8.647435">
        <ele>189.657529</ele>
        <time>2022-04-06T21:06:25.996Z</time>
      </trkpt>
      <trkpt lat="51.613878" lon="8.647737">
        <ele>190.487218</ele>
        <time>2022-04-06T21:06:32.904Z</time>
      </trkpt>
      <trkpt lat="51.614093" lon="8.648503">
        <ele>192.724528</ele>
        <time>2022-04-06T21:06:52.202Z</time>
      </trkpt>
      <trkpt lat="51.614352" lon="8.649797">
        <ele>195.871791</ele>
        <time>2022-04-06T21:07:14.779Z</time>
      </trkpt>
      <trkpt lat="51.614437" lon="8.650306">
        <ele>196.480811</ele>
        <time>2022-04-06T21:07:21.280Z</time>
      </trkpt>
      <trkpt lat="51.614476" lon="8.650540">
        <ele>196.760756</ele>
        <time>2022-04-06T21:07:24.439Z</time>
      </trkpt>
      <trkpt lat="51.614359" lon="8.650839">
        <ele>197.169110</ele>
        <time>2022-04-06T21:07:28.953Z</time>
      </trkpt>
      <trkpt lat="51.614174" lon="8.650891">
        <ele>197.518557</ele>
        <time>2022-04-06T21:07:33.018Z</time>
      </trkpt>
      <trkpt lat="51.614053" lon="8.650780">
        <ele>197.777678</ele>
        <time>2022-04-06T21:07:35.875Z</time>
      </trkpt>
      <trkpt lat="51.613523" lon="8.649934">
        <ele>199.224224</ele>
        <time>2022-04-06T21:07:52.016Z</time>
      </trkpt>
      <trkpt lat="51.613473" lon="8.649858">
        <ele>199.376151</ele>
        <time>2022-04-06T21:07:53.600Z</time>
      </trkpt>
      <trkpt lat="51.613211" lon="8.649510">
        <ele>200.126608</ele>
        <time>2022-04-06T21:08:01.319Z</time>
      </trkpt>
      <trkpt lat="51.612958" lon="8.649431">
        <ele>200.696074</ele>
        <time>2022-04-06T21:08:07.299Z</time>
      </trkpt>
      <trkpt lat="51.611986" lon="8.650131">
        <ele>203.111157</ele>
        <time>2022-04-06T21:08:33.279Z</time>
      </trkpt>
      <trkpt lat="51.611689" lon="8.650402">
        <ele>204.081610</ele>
        <time>2022-04-06T21:08:41.900Z</time>
      </trkpt>
      <trkpt lat="51.611357" lon="8.650741">
        <ele>205.199188</ele>
        <time>2022-04-06T21:08:52.138Z</time>
      </trkpt>
      <trkpt lat="51.611342" lon="8.650760">
        <ele>205.253442</ele>
        <time>2022-04-06T21:08:52.659Z</time>
      </trkpt>
      <trkpt lat="51.610809" lon="8.651381">
        <ele>207.123707</ele>
        <time>2022-04-06T21:09:10.212Z</time>
      </trkpt>
      <trkpt lat="51.610578" lon="8.651649">
        <ele>207.933098</ele>
        <time>2022-04-06T21:09:17.892Z</time>
      </trkpt>
      <trkpt lat="51.609834" lon="8.652501">
        <ele>210.867841</ele>
        <time>2022-04-06T21:09:43.208Z</time>
      </trkpt>
      <trkpt lat="51.609517" lon="8.652879">
        <ele>212.136507</ele>
        <time>2022-04-06T21:09:54.196Z</time>
      </trkpt>
      <trkpt lat="51.609246" lon="8.653204">
        <ele>213.223285</ele>
        <time>2022-04-06T21:10:03.464Z</time>
      </trkpt>
      <trkpt lat="51.608811" lon="8.653723">
        <ele>215.036435</ele>
        <time>2022-04-06T21:10:18.803Z</time>
      </trkpt>
      <trkpt lat="51.608572" lon="8.654018">
        <ele>216.061358</ele>
        <time>2022-04-06T21:10:27.224Z</time>
      </trkpt>
      <trkpt lat="51.608551" lon="8.654044">
        <ele>216.151516</ele>
        <time>2022-04-06T21:10:27.974Z</time>
      </trkpt>
      <trkpt lat="51.608542" lon="8.654055">
        <ele>216.189972</ele>
        <time>2022-04-06T21:10:28.288Z</time>
      </trkpt>
      <trkpt lat="51.608399" lon="8.654230">
        <ele>216.801280</ele>
        <time>2022-04-06T21:10:33.185Z</time>
      </trkpt>
      <trkpt lat="51.608202" lon="8.654473">
        <ele>217.645890</ele>
        <time>2022-04-06T21:10:39.976Z</time>
      </trkpt>
      <trkpt lat="51.608151" lon="8.654526">
        <ele>217.852479</ele>
        <time>2022-04-06T21:10:41.533Z</time>
      </trkpt>
      <trkpt lat="51.607773" lon="8.654878">
        <ele>219.338649</ele>
        <time>2022-04-06T21:10:54.648Z</time>
      </trkpt>
      <trkpt lat="51.606640" lon="8.655592">
        <ele>223.830090</ele>
        <time>2022-04-06T21:11:30.744Z</time>
      </trkpt>
      <trkpt lat="51.606488" lon="8.655750">
        <ele>224.505340</ele>
        <time>2022-04-06T21:11:36.779Z</time>
      </trkpt>
      <trkpt lat="51.606450" lon="8.655803">
        <ele>224.692976</ele>
        <time>2022-04-06T21:11:38.171Z</time>
      </trkpt>
      <trkpt lat="51.606223" lon="8.656199">
        <ele>225.942116</ele>
        <time>2022-04-06T21:11:48.163Z</time>
      </trkpt>
      <trkpt lat="51.606209" lon="8.656239">
        <ele>226.048544</ele>
        <time>2022-04-06T21:11:48.926Z</time>
      </trkpt>
      <trkpt lat="51.606142" lon="8.656438">
        <ele>226.570602</ele>
        <time>2022-04-06T21:11:52.756Z</time>
      </trkpt>
      <trkpt lat="51.606097" lon="8.656615">
        <ele>226.880254</ele>
        <time>2022-04-06T21:11:56.540Z</time>
      </trkpt>
      <trkpt lat="51.606067" lon="8.656797">
        <ele>227.185122</ele>
        <time>2022-04-06T21:11:59.878Z</time>
      </trkpt>
      <trkpt lat="51.606045" lon="8.657250">
        <ele>227.920789</ele>
        <time>2022-04-06T21:12:08.112Z</time>
      </trkpt>
      <trkpt lat="51.606055" lon="8.657488">
        <ele>228.307003</ele>
        <time>2022-04-06T21:12:11.921Z</time>
      </trkpt>
      <trkpt lat="51.606079" lon="8.657828">
        <ele>228.861023</ele>
        <time>2022-04-06T21:12:18.054Z</time>
      </trkpt>
      <trkpt lat="51.606044" lon="8.658747">
        <ele>230.351722</ele>
        <time>2022-04-06T21:12:31.280Z</time>
      </trkpt>
      <trkpt lat="51.606122" lon="8.658931">
        <ele>230.712407</ele>
        <time>2022-04-06T21:12:34.200Z</time>
      </trkpt>
      <trkpt lat="51.606215" lon="8.659190">
        <ele>231.196779</ele>
        <time>2022-04-06T21:12:38.164Z</time>
      </trkpt>
      <trkpt lat="51.606362" lon="8.659601">
        <ele>231.548766</ele>
        <time>2022-04-06T21:12:44.281Z</time>
      </trkpt>
      <trkpt lat="51.606753" lon="8.660623">
        <ele>232.355882</ele>
        <time>2022-04-06T21:12:58.859Z</time>
      </trkpt>
      <trkpt lat="51.606921" lon="8.661001">
        <ele>232.668425</ele>
        <time>2022-04-06T21:13:04.024Z</time>
      </trkpt>
      <trkpt lat="51.607246" lon="8.661717">
        <ele>233.270168</ele>
        <time>2022-04-06T21:13:13.481Z</time>
      </trkpt>
      <trkpt lat="51.607496" lon="8.662264">
        <ele>233.765546</ele>
        <time>2022-04-06T21:13:20.968Z</time>
      </trkpt>
      <trkpt lat="51.607565" lon="8.662399">
        <ele>233.893074</ele>
        <time>2022-04-06T21:13:22.962Z</time>
      </trkpt>
      <trkpt lat="51.608100" lon="8.663610">
        <ele>234.977062</ele>
        <time>2022-04-06T21:13:41.957Z</time>
      </trkpt>
      <trkpt lat="51.608235" lon="8.663844">
        <ele>235.210021</ele>
        <time>2022-04-06T21:13:46.044Z</time>
      </trkpt>
      <trkpt lat="51.608318" lon="8.663974">
        <ele>235.340379</ele>
        <time>2022-04-06T21:13:48.432Z</time>
      </trkpt>
      <trkpt lat="51.608439" lon="8.664192">
        <ele>235.517094</ele>
        <time>2022-04-06T21:13:52.111Z</time>
      </trkpt>
      <trkpt lat="51.608558" lon="8.664405">
        <ele>235.690259</ele>
        <time>2022-04-06T21:13:55.743Z</time>
      </trkpt>
      <trkpt lat="51.608822" lon="8.664638">
        <ele>235.983253</ele>
        <time>2022-04-06T21:14:02.005Z</time>
      </trkpt>
      <trkpt lat="51.611798" lon="8.666524">
        <ele>237.629328</ele>
        <time>2022-04-06T21:14:58.167Z</time>
      </trkpt>
      <trkpt lat="51.614077" lon="8.668003">
        <ele>232.903436</ele>
        <time>2022-04-06T21:15:25.244Z</time>
      </trkpt>
      <trkpt lat="51.615105" lon="8.668653">
        <ele>229.485439</ele>
        <time>2022-04-06T21:15:36.192Z</time>
      </trkpt>
      <trkpt lat="51.615279" lon="8.668795">
        <ele>228.684776</ele>
        <time>2022-04-06T21:15:38.085Z</time>
      </trkpt>
      <trkpt lat="51.617423" lon="8.672136">
        <ele>216.397525</ele>
        <time>2022-04-06T21:16:06.994Z</time>
      </trkpt>
      <trkpt lat="51.619662" lon="8.675690">
        <ele>202.969956</ele>
        <time>2022-04-06T21:16:37.882Z</time>
      </trkpt>
      <trkpt lat="51.621328" lon="8.677270">
        <ele>192.162891</ele>
        <time>2022-04-06T21:16:55.334Z</time>
      </trkpt>
      <trkpt lat="51.623052" lon="8.678906">
        <ele>183.312629</ele>
        <time>2022-04-06T21:17:14.897Z</time>
      </trkpt>
      <trkpt lat="51.623742" lon="8.679810">
        <ele>179.542827</ele>
        <time>2022-04-06T21:17:23.789Z</time>
      </trkpt>
      <trkpt lat="51.624076" lon="8.680231">
        <ele>177.687642</ele>
        <time>2022-04-06T21:17:27.921Z</time>
      </trkpt>
      <trkpt lat="51.624880" lon="8.681273">
        <ele>172.862359</ele>
        <time>2022-04-06T21:17:37.641Z</time>
      </trkpt>
      <trkpt lat="51.625075" lon="8.681535">
        <ele>171.453252</ele>
        <time>2022-04-06T21:17:39.944Z</time>
      </trkpt>
      <trkpt lat="51.625127" lon="8.681606">
        <ele>171.074979</ele>
        <time>2022-04-06T21:17:40.567Z</time>
      </trkpt>
      <trkpt lat="51.625443" lon="8.682084">
        <ele>168.669465</ele>
        <time>2022-04-06T21:17:44.536Z</time>
      </trkpt>
      <trkpt lat="51.625524" lon="8.682331">
        <ele>167.707143</ele>
        <time>2022-04-06T21:17:46.125Z</time>
      </trkpt>
      <trkpt lat="51.625602" lon="8.682972">
        <ele>165.456922</ele>
        <time>2022-04-06T21:17:49.915Z</time>
      </trkpt>
      <trkpt lat="51.625694" lon="8.683380">
        <ele>164.081795</ele>
        <time>2022-04-06T21:17:52.452Z</time>
      </trkpt>
      <trkpt lat="51.625709" lon="8.683413">
        <ele>163.984329</ele>
        <time>2022-04-06T21:17:52.691Z</time>
      </trkpt>
      <trkpt lat="51.625990" lon="8.683721">
        <ele>162.679630</ele>
        <time>2022-04-06T21:17:55.933Z</time>
      </trkpt>
      <trkpt lat="51.626338" lon="8.683843">
        <ele>161.312501</ele>
        <time>2022-04-06T21:17:59.316Z</time>
      </trkpt>
      <trkpt lat="51.626731" lon="8.683692">
        <ele>159.761582</ele>
        <time>2022-04-06T21:18:03.315Z</time>
      </trkpt>
      <trkpt lat="51.627077" lon="8.683476">
        <ele>158.337150</ele>
        <time>2022-04-06T21:18:07.091Z</time>
      </trkpt>
      <trkpt lat="51.627364" lon="8.683475">
        <ele>157.388404</ele>
        <time>2022-04-06T21:18:10.134Z</time>
      </trkpt>
      <trkpt lat="51.627653" lon="8.683581">
        <ele>157.072317</ele>
        <time>2022-04-06T21:18:13.370Z</time>
      </trkpt>
      <trkpt lat="51.627725" lon="8.683708">
        <ele>156.958456</ele>
        <time>2022-04-06T21:18:14.492Z</time>
      </trkpt>
      <trkpt lat="51.627913" lon="8.683440">
        <ele>156.690737</ele>
        <time>2022-04-06T21:18:17.386Z</time>
      </trkpt>
      <trkpt lat="51.628040" lon="8.683141">
        <ele>156.450898</ele>
        <time>2022-04-06T21:18:20.034Z</time>
      </trkpt>
      <trkpt lat="51.628405" lon="8.682184">
        <ele>155.707338</ele>
        <time>2022-04-06T21:18:29.169Z</time>
      </trkpt>
      <trkpt lat="51.628493" lon="8.681964">
        <ele>155.534081</ele>
        <time>2022-04-06T21:18:31.741Z</time>
      </trkpt>
      <trkpt lat="51.628566" lon="8.681836">
        <ele>155.657863</ele>
        <time>2022-04-06T21:18:33.290Z</time>
      </trkpt>
      <trkpt lat="51.629678" lon="8.680166">
        <ele>157.553838</ele>
        <time>2022-04-06T21:19:04.270Z</time>
      </trkpt>
      <trkpt lat="51.630136" lon="8.679668">
        <ele>158.496969</ele>
        <time>2022-04-06T21:19:17.425Z</time>
      </trkpt>
      <trkpt lat="51.630825" lon="8.679186">
        <ele>159.939312</ele>
        <time>2022-04-06T21:19:33.988Z</time>
      </trkpt>
      <trkpt lat="51.631214" lon="8.678988">
        <ele>160.722649</ele>
        <time>2022-04-06T21:19:43.101Z</time>
      </trkpt>
      <trkpt lat="51.631465" lon="8.678909">
        <ele>161.213721</ele>
        <time>2022-04-06T21:19:49.035Z</time>
      </trkpt>
      <trkpt lat="51.631524" lon="8.678889">
        <ele>161.339764</ele>
        <time>2022-04-06T21:19:50.492Z</time>
      </trkpt>
      <trkpt lat="51.631740" lon="8.678830">
        <ele>161.802177</ele>
        <time>2022-04-06T21:19:55.557Z</time>
      </trkpt>
      <trkpt lat="51.631752" lon="8.678826">
        <ele>161.828042</ele>
        <time>2022-04-06T21:19:55.855Z</time>
      </trkpt>
      <trkpt lat="51.632301" lon="8.678634">
        <ele>163.013793</ele>
        <time>2022-04-06T21:20:08.684Z</time>
      </trkpt>
      <trkpt lat="51.632581" lon="8.678505">
        <ele>163.628473</ele>
        <time>2022-04-06T21:20:15.293Z</time>
      </trkpt>
      <trkpt lat="51.632923" lon="8.678304">
        <ele>164.396857</ele>
        <time>2022-04-06T21:20:23.258Z</time>
      </trkpt>
      <trkpt lat="51.632992" lon="8.678271">
        <ele>164.548775</ele>
        <time>2022-04-06T21:20:24.838Z</time>
      </trkpt>
      <trkpt lat="51.633268" lon="8.678178">
        <ele>165.230930</ele>
        <time>2022-04-06T21:20:31.689Z</time>
      </trkpt>
      <trkpt lat="51.633618" lon="8.678297">
        <ele>166.526074</ele>
        <time>2022-04-06T21:20:41.040Z</time>
      </trkpt>
      <trkpt lat="51.633674" lon="8.678247">
        <ele>166.757885</ele>
        <time>2022-04-06T21:20:42.686Z</time>
      </trkpt>
      <trkpt lat="51.633711" lon="8.678140">
        <ele>167.033145</ele>
        <time>2022-04-06T21:20:44.899Z</time>
      </trkpt>
      <trkpt lat="51.633741" lon="8.677448">
        <ele>168.592062</ele>
        <time>2022-04-06T21:20:57.134Z</time>
      </trkpt>
      <trkpt lat="51.633790" lon="8.677119">
        <ele>169.352410</ele>
        <time>2022-04-06T21:21:03.263Z</time>
      </trkpt>
      <trkpt lat="51.634072" lon="8.675376">
        <ele>174.133554</ele>
        <time>2022-04-06T21:21:40.979Z</time>
      </trkpt>
      <trkpt lat="51.634568" lon="8.674774">
        <ele>177.265583</ele>
        <time>2022-04-06T21:22:04.443Z</time>
      </trkpt>
      <trkpt lat="51.635209" lon="8.673840">
        <ele>180.960441</ele>
        <time>2022-04-06T21:22:35.567Z</time>
      </trkpt>
      <trkpt lat="51.635523" lon="8.673137">
        <ele>181.903510</ele>
        <time>2022-04-06T21:22:49.162Z</time>
      </trkpt>
      <trkpt lat="51.635616" lon="8.672926">
        <ele>182.185295</ele>
        <time>2022-04-06T21:22:53.057Z</time>
      </trkpt>
      <trkpt lat="51.635782" lon="8.672521">
        <ele>182.713758</ele>
        <time>2022-04-06T21:22:58.782Z</time>
      </trkpt>
      <trkpt lat="51.635911" lon="8.672595">
        <ele>182.953983</ele>
        <time>2022-04-06T21:23:00.847Z</time>
      </trkpt>
      <trkpt lat="51.636076" lon="8.672617">
        <ele>183.244437</ele>
        <time>2022-04-06T21:23:03.456Z</time>
      </trkpt>
      <trkpt lat="51.636685" lon="8.672694">
        <ele>183.350180</ele>
        <time>2022-04-06T21:23:11.164Z</time>
      </trkpt>
      <trkpt lat="51.640056" lon="8.673118">
        <ele>178.747312</ele>
        <time>2022-04-06T21:23:49.965Z</time>
      </trkpt>
      <trkpt lat="51.640338" lon="8.673156">
        <ele>178.561485</ele>
        <time>2022-04-06T21:23:53.463Z</time>
      </trkpt>
      <trkpt lat="51.640491" lon="8.673190">
        <ele>178.460063</ele>
        <time>2022-04-06T21:23:55.456Z</time>
      </trkpt>
      <trkpt lat="51.642700" lon="8.677672">
        <ele>177.080509</ele>
        <time>2022-04-06T21:25:01.859Z</time>
      </trkpt>
      <trkpt lat="51.642885" lon="8.677852">
        <ele>177.173898</ele>
        <time>2022-04-06T21:25:06.673Z</time>
      </trkpt>
      <trkpt lat="51.643836" lon="8.681240">
        <ele>178.636780</ele>
        <time>2022-04-06T21:26:01.313Z</time>
      </trkpt>
      <trkpt lat="51.646388" lon="8.682466">
        <ele>179.698598</ele>
        <time>2022-04-06T21:26:48.430Z</time>
      </trkpt>
      <trkpt lat="51.648057" lon="8.684271">
        <ele>176.640017</ele>
        <time>2022-04-06T21:27:10.387Z</time>
      </trkpt>
      <trkpt lat="51.648891" lon="8.684928">
        <ele>175.010111</ele>
        <time>2022-04-06T21:27:20.620Z</time>
      </trkpt>
      <trkpt lat="51.652499" lon="8.687744">
        <ele>171.559232</ele>
        <time>2022-04-06T21:28:10.348Z</time>
      </trkpt>
      <trkpt lat="51.656285" lon="8.690686">
        <ele>176.201224</ele>
        <time>2022-04-06T21:29:36.712Z</time>
      </trkpt>
      <trkpt lat="51.655777" lon="8.692913">
        <ele>175.681823</ele>
        <time>2022-04-06T21:29:56.082Z</time>
      </trkpt>
      <trkpt lat="51.655504" lon="8.694074">
        <ele>174.105908</ele>
        <time>2022-04-06T21:30:04.528Z</time>
      </trkpt>
      <trkpt lat="51.655131" lon="8.695701">
        <ele>171.333312</ele>
        <time>2022-04-06T21:30:15.677Z</time>
      </trkpt>
      <trkpt lat="51.655025" lon="8.696147">
        <ele>170.259783</ele>
        <time>2022-04-06T21:30:18.635Z</time>
      </trkpt>
      <trkpt lat="51.654865" lon="8.696821">
        <ele>168.637694</ele>
        <time>2022-04-06T21:30:23.021Z</time>
      </trkpt>
      <trkpt lat="51.654896" lon="8.696849">
        <ele>168.508948</ele>
        <time>2022-04-06T21:30:23.371Z</time>
      </trkpt>
      <trkpt lat="51.654999" lon="8.697246">
        <ele>167.541712</ele>
        <time>2022-04-06T21:30:25.957Z</time>
      </trkpt>
      <trkpt lat="51.655113" lon="8.697768">
        <ele>166.297826</ele>
        <time>2022-04-06T21:30:29.289Z</time>
      </trkpt>
      <trkpt lat="51.655176" lon="8.698010">
        <ele>165.770330</ele>
        <time>2022-04-06T21:30:30.874Z</time>
      </trkpt>
      <trkpt lat="51.655270" lon="8.698416">
        <ele>164.940819</ele>
        <time>2022-04-06T21:30:33.511Z</time>
      </trkpt>
      <trkpt lat="51.655295" lon="8.698521">
        <ele>164.725537</ele>
        <time>2022-04-06T21:30:34.212Z</time>
      </trkpt>
      <trkpt lat="51.655424" lon="8.699086">
        <ele>163.573115</ele>
        <time>2022-04-06T21:30:37.966Z</time>
      </trkpt>
      <trkpt lat="51.655584" lon="8.699741">
        <ele>162.225649</ele>
        <time>2022-04-06T21:30:42.412Z</time>
      </trkpt>
      <trkpt lat="51.655867" lon="8.700921">
        <ele>160.409000</ele>
        <time>2022-04-06T21:30:50.818Z</time>
      </trkpt>
      <trkpt lat="51.656207" lon="8.702343">
        <ele>159.769498</ele>
        <time>2022-04-06T21:31:02.641Z</time>
      </trkpt>
      <trkpt lat="51.656763" lon="8.704850">
        <ele>159.656399</ele>
        <time>2022-04-06T21:31:30.785Z</time>
      </trkpt>
      <trkpt lat="51.656740" lon="8.705067">
        <ele>159.694675</ele>
        <time>2022-04-06T21:31:33.337Z</time>
      </trkpt>
      <trkpt lat="51.657069" lon="8.706516">
        <ele>158.899733</ele>
        <time>2022-04-06T21:31:47.227Z</time>
      </trkpt>
      <trkpt lat="51.657289" lon="8.706960">
        <ele>157.911344</ele>
        <time>2022-04-06T21:31:51.264Z</time>
      </trkpt>
      <trkpt lat="51.658084" lon="8.708475">
        <ele>153.938788</ele>
        <time>2022-04-06T21:32:03.395Z</time>
      </trkpt>
      <trkpt lat="51.658373" lon="8.709002">
        <ele>150.960918</ele>
        <time>2022-04-06T21:32:07.361Z</time>
      </trkpt>
      <trkpt lat="51.658479" lon="8.709187">
        <ele>149.894746</ele>
        <time>2022-04-06T21:32:08.756Z</time>
      </trkpt>
      <trkpt lat="51.658959" lon="8.709971">
        <ele>145.231375</ele>
        <time>2022-04-06T21:32:14.773Z</time>
      </trkpt>
      <trkpt lat="51.660095" lon="8.711347">
        <ele>137.410752</ele>
        <time>2022-04-06T21:32:27.536Z</time>
      </trkpt>
      <trkpt lat="51.660766" lon="8.712184">
        <ele>133.641332</ele>
        <time>2022-04-06T21:32:36.192Z</time>
      </trkpt>
      <trkpt lat="51.660829" lon="8.712121">
        <ele>133.721283</ele>
        <time>2022-04-06T21:32:37.056Z</time>
      </trkpt>
      <trkpt lat="51.661101" lon="8.712480">
        <ele>134.100388</ele>
        <time>2022-04-06T21:32:42.337Z</time>
      </trkpt>
      <trkpt lat="51.661470" lon="8.713014">
        <ele>134.635147</ele>
        <time>2022-04-06T21:32:52.984Z</time>
      </trkpt>
      <trkpt lat="51.661594" lon="8.713377">
        <ele>134.912365</ele>
        <time>2022-04-06T21:32:59.211Z</time>
      </trkpt>
      <trkpt lat="51.661631" lon="8.713515">
        <ele>135.012935</ele>
        <time>2022-04-06T21:33:01.533Z</time>
      </trkpt>
      <trkpt lat="51.661672" lon="8.713774">
        <ele>135.191747</ele>
        <time>2022-04-06T21:33:05.851Z</time>
      </trkpt>
      <trkpt lat="51.661717" lon="8.714258">
        <ele>135.521919</ele>
        <time>2022-04-06T21:33:13.786Z</time>
      </trkpt>
      <trkpt lat="51.661719" lon="8.714329">
        <ele>135.575535</ele>
        <time>2022-04-06T21:33:15.036Z</time>
      </trkpt>
      <trkpt lat="51.661719" lon="8.714526">
        <ele>135.724149</ele>
        <time>2022-04-06T21:33:18.266Z</time>
      </trkpt>
      <trkpt lat="51.661704" lon="8.714732">
        <ele>135.880619</ele>
        <time>2022-04-06T21:33:21.534Z</time>
      </trkpt>
      <trkpt lat="51.661604" lon="8.715321">
        <ele>136.341295</ele>
        <time>2022-04-06T21:33:30.897Z</time>
      </trkpt>
      <trkpt lat="51.661569" lon="8.715478">
        <ele>136.467150</ele>
        <time>2022-04-06T21:33:33.485Z</time>
      </trkpt>
      <trkpt lat="51.661473" lon="8.715906">
        <ele>136.810488</ele>
        <time>2022-04-06T21:33:39.054Z</time>
      </trkpt>
      <trkpt lat="51.661358" lon="8.716337">
        <ele>137.164433</ele>
        <time>2022-04-06T21:33:43.655Z</time>
      </trkpt>
      <trkpt lat="51.661346" lon="8.716379">
        <ele>137.199317</ele>
        <time>2022-04-06T21:33:44.060Z</time>
      </trkpt>
      <trkpt lat="51.661242" lon="8.716702">
        <ele>137.473856</ele>
        <time>2022-04-06T21:33:47.201Z</time>
      </trkpt>
      <trkpt lat="51.661060" lon="8.717240">
        <ele>137.474731</ele>
        <time>2022-04-06T21:33:51.984Z</time>
      </trkpt>
      <trkpt lat="51.661014" lon="8.717372">
        <ele>137.379278</ele>
        <time>2022-04-06T21:33:53.069Z</time>
      </trkpt>
      <trkpt lat="51.660947" lon="8.717357">
        <ele>137.310529</ele>
        <time>2022-04-06T21:33:53.943Z</time>
      </trkpt>
      <trkpt lat="51.660866" lon="8.717450">
        <ele>137.209459</ele>
        <time>2022-04-06T21:33:55.221Z</time>
      </trkpt>
      <trkpt lat="51.660866" lon="8.717630">
        <ele>137.095976</ele>
        <time>2022-04-06T21:33:56.550Z</time>
      </trkpt>
      <trkpt lat="51.660925" lon="8.717712">
        <ele>137.016803</ele>
        <time>2022-04-06T21:33:57.439Z</time>
      </trkpt>
      <trkpt lat="51.660894" lon="8.717829">
        <ele>136.936592</ele>
        <time>2022-04-06T21:33:58.436Z</time>
      </trkpt>
      <trkpt lat="51.660670" lon="8.718705">
        <ele>136.339226</ele>
        <time>2022-04-06T21:34:05.479Z</time>
      </trkpt>
      <trkpt lat="51.660373" lon="8.719338">
        <ele>135.856738</ele>
        <time>2022-04-06T21:34:11.180Z</time>
      </trkpt>
      <trkpt lat="51.659772" lon="8.720140">
        <ele>135.856738</ele>
        <time>2022-04-06T21:34:21.085Z</time>
      </trkpt>
      <trkpt lat="51.659643" lon="8.720298">
        <ele>135.856738</ele>
        <time>2022-04-06T21:34:23.508Z</time>
      </trkpt>
      <trkpt lat="51.659359" lon="8.720648">
        <ele>135.856738</ele>
        <time>2022-04-06T21:34:29.373Z</time>
      </trkpt>
      <trkpt lat="51.659155" lon="8.720899">
        <ele>135.856738</ele>
        <time>2022-04-06T21:34:33.516Z</time>
      </trkpt>
      <trkpt lat="51.659155" lon="8.720899">
        <ele>135.856738</ele>
        <time>2022-04-06T21:34:33.518Z</time>
      </trkpt>
      <trkpt lat="51.659155" lon="8.720899">
        <ele>135.856738</ele>
        <time>2022-04-06T21:34:33.547Z</time>
      </trkpt>
      <trkpt lat="51.659146" lon="8.720809">
        <ele>135.856738</ele>
        <time>2022-04-06T21:34:39.978Z</time>
      </trkpt>
      <trkpt lat="51.659100" lon="8.720307">
        <ele>135.856738</ele>
        <time>2022-04-06T21:35:15.531Z</time>
      </trkpt>
      <trkpt lat="51.659050" lon="8.720123">
        <ele>135.856738</ele>
        <time>2022-04-06T21:35:29.688Z</time>
      </trkpt>
    </trkseg>
  </trk>
</gpx>